<?xml version="1.0" encoding="UTF-8" standalone="no" ?>
<gpx xmlns="http://www.topografix.com/GPX/1/1" xmlns:xsi="http://www.w3.org/2001/XMLSchema-instance" xsi:schemaLocation="http://www.topografix.com/GPX/1/1 http://www.topografix.com/GPX/1/1/gpx.xsd" version="1.1" creator="VisuGPX - https://www.visugpx.com">
  <metadata>
    <name>Chevrières</name>
    <desc><![CDATA[Jolie balade sur sentiers avec un bon dénivelé.]]></desc>
  </metadata>
  <trk>
    <name><![CDATA[Chevrières 12,4 km_2017-03-22]]></name>
    <trkseg>
      <trkpt lat="45.58804" lon="4.40047">
        <ele>608.65185546875</ele>
        <time>2017-03-22T13:14:39Z</time>
      </trkpt>
      <trkpt lat="45.58806" lon="4.40054">
        <ele>611.05517578125</ele>
        <time>2017-03-22T13:15:09Z</time>
      </trkpt>
      <trkpt lat="45.58809" lon="4.40062">
        <ele>611.05517578125</ele>
        <time>2017-03-22T13:15:15Z</time>
      </trkpt>
      <trkpt lat="45.58819" lon="4.40073">
        <ele>611.53588867188</ele>
        <time>2017-03-22T13:15:30Z</time>
      </trkpt>
      <trkpt lat="45.58823" lon="4.40068">
        <ele>612.97778320312</ele>
        <time>2017-03-22T13:15:35Z</time>
      </trkpt>
      <trkpt lat="45.58829" lon="4.40058">
        <ele>612.0166015625</ele>
        <time>2017-03-22T13:15:46Z</time>
      </trkpt>
      <trkpt lat="45.58837" lon="4.40052">
        <ele>613.93896484375</ele>
        <time>2017-03-22T13:15:55Z</time>
      </trkpt>
      <trkpt lat="45.58856" lon="4.40042">
        <ele>614.900390625</ele>
        <time>2017-03-22T13:16:12Z</time>
      </trkpt>
      <trkpt lat="45.58873" lon="4.40027">
        <ele>616.34228515625</ele>
        <time>2017-03-22T13:16:27Z</time>
      </trkpt>
      <trkpt lat="45.58877" lon="4.40018">
        <ele>616.82299804688</ele>
        <time>2017-03-22T13:16:34Z</time>
      </trkpt>
      <trkpt lat="45.58889" lon="4.39996">
        <ele>618.26489257812</ele>
        <time>2017-03-22T13:16:48Z</time>
      </trkpt>
      <trkpt lat="45.58893" lon="4.39988">
        <ele>619.22631835938</ele>
        <time>2017-03-22T13:16:52Z</time>
      </trkpt>
      <trkpt lat="45.58899" lon="4.39984">
        <ele>619.22631835938</ele>
        <time>2017-03-22T13:16:56Z</time>
      </trkpt>
      <trkpt lat="45.58912" lon="4.39963">
        <ele>619.22631835938</ele>
        <time>2017-03-22T13:17:10Z</time>
      </trkpt>
      <trkpt lat="45.58912" lon="4.39955">
        <ele>619.22631835938</ele>
        <time>2017-03-22T13:17:15Z</time>
      </trkpt>
      <trkpt lat="45.58923" lon="4.39934">
        <ele>614.41967773438</ele>
        <time>2017-03-22T13:17:31Z</time>
      </trkpt>
      <trkpt lat="45.58923" lon="4.39929">
        <ele>614.41967773438</ele>
        <time>2017-03-22T13:17:33Z</time>
      </trkpt>
      <trkpt lat="45.58914" lon="4.39904">
        <ele>606.24853515625</ele>
        <time>2017-03-22T13:17:47Z</time>
      </trkpt>
      <trkpt lat="45.58915" lon="4.39895">
        <ele>603.36450195312</ele>
        <time>2017-03-22T13:17:54Z</time>
      </trkpt>
      <trkpt lat="45.58918" lon="4.3989">
        <ele>603.84521484375</ele>
        <time>2017-03-22T13:17:58Z</time>
      </trkpt>
      <trkpt lat="45.58923" lon="4.39882">
        <ele>603.84521484375</ele>
        <time>2017-03-22T13:18:04Z</time>
      </trkpt>
      <trkpt lat="45.58929" lon="4.39864">
        <ele>601.44189453125</ele>
        <time>2017-03-22T13:18:16Z</time>
      </trkpt>
      <trkpt lat="45.58929" lon="4.3986">
        <ele>601.44189453125</ele>
        <time>2017-03-22T13:18:18Z</time>
      </trkpt>
      <trkpt lat="45.58929" lon="4.39851">
        <ele>600.48071289062</ele>
        <time>2017-03-22T13:18:23Z</time>
      </trkpt>
      <trkpt lat="45.58932" lon="4.39843">
        <ele>600</ele>
        <time>2017-03-22T13:18:27Z</time>
      </trkpt>
      <trkpt lat="45.58931" lon="4.39832">
        <ele>596.63549804688</ele>
        <time>2017-03-22T13:18:33Z</time>
      </trkpt>
      <trkpt lat="45.58932" lon="4.39813">
        <ele>596.63549804688</ele>
        <time>2017-03-22T13:18:43Z</time>
      </trkpt>
      <trkpt lat="45.58935" lon="4.3978">
        <ele>593.27075195312</ele>
        <time>2017-03-22T13:19:01Z</time>
      </trkpt>
      <trkpt lat="45.58935" lon="4.39753">
        <ele>592.3095703125</ele>
        <time>2017-03-22T13:19:15Z</time>
      </trkpt>
      <trkpt lat="45.58934" lon="4.39747">
        <ele>593.75146484375</ele>
        <time>2017-03-22T13:19:26Z</time>
      </trkpt>
      <trkpt lat="45.58938" lon="4.39715">
        <ele>597.5966796875</ele>
        <time>2017-03-22T13:19:41Z</time>
      </trkpt>
      <trkpt lat="45.58941" lon="4.39692">
        <ele>597.11596679688</ele>
        <time>2017-03-22T13:19:53Z</time>
      </trkpt>
      <trkpt lat="45.58954" lon="4.39685">
        <ele>596.63549804688</ele>
        <time>2017-03-22T13:20:06Z</time>
      </trkpt>
      <trkpt lat="45.58968" lon="4.39689">
        <ele>593.75146484375</ele>
        <time>2017-03-22T13:20:16Z</time>
      </trkpt>
      <trkpt lat="45.58982" lon="4.39696">
        <ele>593.75146484375</ele>
        <time>2017-03-22T13:20:28Z</time>
      </trkpt>
      <trkpt lat="45.59" lon="4.39702">
        <ele>589.42553710938</ele>
        <time>2017-03-22T13:20:43Z</time>
      </trkpt>
      <trkpt lat="45.5901" lon="4.39705">
        <ele>583.65747070312</ele>
        <time>2017-03-22T13:20:58Z</time>
      </trkpt>
      <trkpt lat="45.59029" lon="4.39704">
        <ele>583.1767578125</ele>
        <time>2017-03-22T13:21:14Z</time>
      </trkpt>
      <trkpt lat="45.59047" lon="4.39702">
        <ele>580.29296875</ele>
        <time>2017-03-22T13:21:28Z</time>
      </trkpt>
      <trkpt lat="45.59054" lon="4.39699">
        <ele>577.8896484375</ele>
        <time>2017-03-22T13:21:43Z</time>
      </trkpt>
      <trkpt lat="45.5906" lon="4.39699">
        <ele>575.486328125</ele>
        <time>2017-03-22T13:22:11Z</time>
      </trkpt>
      <trkpt lat="45.59078" lon="4.39692">
        <ele>573.08325195312</ele>
        <time>2017-03-22T13:22:31Z</time>
      </trkpt>
      <trkpt lat="45.59098" lon="4.39686">
        <ele>573.08325195312</ele>
        <time>2017-03-22T13:22:48Z</time>
      </trkpt>
      <trkpt lat="45.59109" lon="4.39683">
        <ele>569.23779296875</ele>
        <time>2017-03-22T13:23:02Z</time>
      </trkpt>
      <trkpt lat="45.5912" lon="4.39681">
        <ele>568.2763671875</ele>
        <time>2017-03-22T13:23:17Z</time>
      </trkpt>
      <trkpt lat="45.59122" lon="4.39682">
        <ele>566.83447265625</ele>
        <time>2017-03-22T13:23:44Z</time>
      </trkpt>
      <trkpt lat="45.59132" lon="4.39678">
        <ele>565.87329101562</ele>
        <time>2017-03-22T13:23:56Z</time>
      </trkpt>
      <trkpt lat="45.59149" lon="4.39672">
        <ele>562.02807617188</ele>
        <time>2017-03-22T13:24:11Z</time>
      </trkpt>
      <trkpt lat="45.59166" lon="4.39668">
        <ele>557.22143554688</ele>
        <time>2017-03-22T13:24:29Z</time>
      </trkpt>
      <trkpt lat="45.59179" lon="4.39664">
        <ele>554.33740234375</ele>
        <time>2017-03-22T13:24:42Z</time>
      </trkpt>
      <trkpt lat="45.59189" lon="4.39662">
        <ele>553.85668945312</ele>
        <time>2017-03-22T13:24:50Z</time>
      </trkpt>
      <trkpt lat="45.59204" lon="4.3966">
        <ele>549.53076171875</ele>
        <time>2017-03-22T13:25:05Z</time>
      </trkpt>
      <trkpt lat="45.5922" lon="4.39656">
        <ele>546.64685058594</ele>
        <time>2017-03-22T13:25:18Z</time>
      </trkpt>
      <trkpt lat="45.59234" lon="4.39651">
        <ele>543.76281738281</ele>
        <time>2017-03-22T13:25:31Z</time>
      </trkpt>
      <trkpt lat="45.59249" lon="4.39645">
        <ele>543.76281738281</ele>
        <time>2017-03-22T13:25:44Z</time>
      </trkpt>
      <trkpt lat="45.59252" lon="4.39643">
        <ele>544.24365234375</ele>
        <time>2017-03-22T13:25:48Z</time>
      </trkpt>
      <trkpt lat="45.59266" lon="4.39623">
        <ele>537.99499511719</ele>
        <time>2017-03-22T13:26:05Z</time>
      </trkpt>
      <trkpt lat="45.59278" lon="4.39605">
        <ele>534.63037109375</ele>
        <time>2017-03-22T13:26:20Z</time>
      </trkpt>
      <trkpt lat="45.59278" lon="4.39604">
        <ele>534.63037109375</ele>
        <time>2017-03-22T13:26:21Z</time>
      </trkpt>
      <trkpt lat="45.59283" lon="4.39597">
        <ele>534.63037109375</ele>
        <time>2017-03-22T13:26:27Z</time>
      </trkpt>
      <trkpt lat="45.59286" lon="4.39593">
        <ele>534.14965820312</ele>
        <time>2017-03-22T13:26:31Z</time>
      </trkpt>
      <trkpt lat="45.59302" lon="4.3958">
        <ele>533.18835449219</ele>
        <time>2017-03-22T13:26:47Z</time>
      </trkpt>
      <trkpt lat="45.59312" lon="4.39576">
        <ele>531.74633789062</ele>
        <time>2017-03-22T13:26:58Z</time>
      </trkpt>
      <trkpt lat="45.59329" lon="4.39578">
        <ele>527.90100097656</ele>
        <time>2017-03-22T13:27:19Z</time>
      </trkpt>
      <trkpt lat="45.59347" lon="4.39588">
        <ele>528.86254882812</ele>
        <time>2017-03-22T13:27:36Z</time>
      </trkpt>
      <trkpt lat="45.59365" lon="4.396">
        <ele>525.49780273438</ele>
        <time>2017-03-22T13:27:52Z</time>
      </trkpt>
      <trkpt lat="45.59375" lon="4.39607">
        <ele>523.5751953125</ele>
        <time>2017-03-22T13:28:07Z</time>
      </trkpt>
      <trkpt lat="45.59392" lon="4.39613">
        <ele>521.65258789062</ele>
        <time>2017-03-22T13:28:22Z</time>
      </trkpt>
      <trkpt lat="45.59406" lon="4.39616">
        <ele>520.69128417969</ele>
        <time>2017-03-22T13:28:36Z</time>
      </trkpt>
      <trkpt lat="45.59421" lon="4.39624">
        <ele>517.80725097656</ele>
        <time>2017-03-22T13:28:49Z</time>
      </trkpt>
      <trkpt lat="45.59435" lon="4.3963">
        <ele>513.00073242188</ele>
        <time>2017-03-22T13:29:02Z</time>
      </trkpt>
      <trkpt lat="45.59441" lon="4.39633">
        <ele>513.00073242188</ele>
        <time>2017-03-22T13:29:07Z</time>
      </trkpt>
      <trkpt lat="45.59456" lon="4.3964">
        <ele>508.67468261719</ele>
        <time>2017-03-22T13:29:22Z</time>
      </trkpt>
      <trkpt lat="45.59468" lon="4.39642">
        <ele>504.34887695312</ele>
        <time>2017-03-22T13:29:35Z</time>
      </trkpt>
      <trkpt lat="45.59482" lon="4.39643">
        <ele>500.02294921875</ele>
        <time>2017-03-22T13:29:48Z</time>
      </trkpt>
      <trkpt lat="45.59502" lon="4.39647">
        <ele>501.94555664062</ele>
        <time>2017-03-22T13:30:04Z</time>
      </trkpt>
      <trkpt lat="45.5952" lon="4.39651">
        <ele>499.54223632812</ele>
        <time>2017-03-22T13:30:18Z</time>
      </trkpt>
      <trkpt lat="45.59521" lon="4.39651">
        <ele>500.02294921875</ele>
        <time>2017-03-22T13:30:19Z</time>
      </trkpt>
      <trkpt lat="45.59525" lon="4.39652">
        <ele>499.0615234375</ele>
        <time>2017-03-22T13:30:25Z</time>
      </trkpt>
      <trkpt lat="45.59542" lon="4.39658">
        <ele>496.177734375</ele>
        <time>2017-03-22T13:30:40Z</time>
      </trkpt>
      <trkpt lat="45.59556" lon="4.39656">
        <ele>490.89038085938</ele>
        <time>2017-03-22T13:30:54Z</time>
      </trkpt>
      <trkpt lat="45.59572" lon="4.39653">
        <ele>493.29357910156</ele>
        <time>2017-03-22T13:31:09Z</time>
      </trkpt>
      <trkpt lat="45.59582" lon="4.39648">
        <ele>492.81298828125</ele>
        <time>2017-03-22T13:31:19Z</time>
      </trkpt>
      <trkpt lat="45.59587" lon="4.39631">
        <ele>494.25500488281</ele>
        <time>2017-03-22T13:31:38Z</time>
      </trkpt>
      <trkpt lat="45.59592" lon="4.39626">
        <ele>495.21618652344</ele>
        <time>2017-03-22T13:31:47Z</time>
      </trkpt>
      <trkpt lat="45.59594" lon="4.39623">
        <ele>495.69689941406</ele>
        <time>2017-03-22T13:31:50Z</time>
      </trkpt>
      <trkpt lat="45.59606" lon="4.39613">
        <ele>497.13891601562</ele>
        <time>2017-03-22T13:32:06Z</time>
      </trkpt>
      <trkpt lat="45.5961" lon="4.39611">
        <ele>498.10034179688</ele>
        <time>2017-03-22T13:32:09Z</time>
      </trkpt>
      <trkpt lat="45.59622" lon="4.39603">
        <ele>498.10034179688</ele>
        <time>2017-03-22T13:32:24Z</time>
      </trkpt>
      <trkpt lat="45.5963" lon="4.396">
        <ele>498.10034179688</ele>
        <time>2017-03-22T13:32:33Z</time>
      </trkpt>
      <trkpt lat="45.59631" lon="4.396">
        <ele>497.61962890625</ele>
        <time>2017-03-22T13:32:35Z</time>
      </trkpt>
      <trkpt lat="45.59639" lon="4.39608">
        <ele>500.50354003906</ele>
        <time>2017-03-22T13:32:49Z</time>
      </trkpt>
      <trkpt lat="45.59652" lon="4.39619">
        <ele>503.38745117188</ele>
        <time>2017-03-22T13:33:04Z</time>
      </trkpt>
      <trkpt lat="45.59662" lon="4.39629">
        <ele>506.75207519531</ele>
        <time>2017-03-22T13:33:17Z</time>
      </trkpt>
      <trkpt lat="45.5967" lon="4.3964">
        <ele>511.55871582031</ele>
        <time>2017-03-22T13:33:34Z</time>
      </trkpt>
      <trkpt lat="45.59678" lon="4.39638">
        <ele>516.84594726562</ele>
        <time>2017-03-22T13:33:54Z</time>
      </trkpt>
      <trkpt lat="45.59685" lon="4.39652">
        <ele>520.69128417969</ele>
        <time>2017-03-22T13:34:11Z</time>
      </trkpt>
      <trkpt lat="45.59684" lon="4.3966">
        <ele>523.5751953125</ele>
        <time>2017-03-22T13:34:20Z</time>
      </trkpt>
      <trkpt lat="45.5968" lon="4.39667">
        <ele>525.01721191406</ele>
        <time>2017-03-22T13:34:25Z</time>
      </trkpt>
      <trkpt lat="45.59675" lon="4.39685">
        <ele>524.53649902344</ele>
        <time>2017-03-22T13:34:39Z</time>
      </trkpt>
      <trkpt lat="45.59676" lon="4.39689">
        <ele>525.01721191406</ele>
        <time>2017-03-22T13:34:42Z</time>
      </trkpt>
      <trkpt lat="45.5968" lon="4.39709">
        <ele>525.97839355469</ele>
        <time>2017-03-22T13:34:59Z</time>
      </trkpt>
      <trkpt lat="45.59682" lon="4.39712">
        <ele>526.45910644531</ele>
        <time>2017-03-22T13:35:02Z</time>
      </trkpt>
      <trkpt lat="45.59684" lon="4.39723">
        <ele>525.97839355469</ele>
        <time>2017-03-22T13:35:12Z</time>
      </trkpt>
      <trkpt lat="45.5969" lon="4.39735">
        <ele>526.93981933594</ele>
        <time>2017-03-22T13:35:27Z</time>
      </trkpt>
      <trkpt lat="45.59709" lon="4.39741">
        <ele>525.01721191406</ele>
        <time>2017-03-22T13:35:48Z</time>
      </trkpt>
      <trkpt lat="45.59716" lon="4.39745">
        <ele>525.01721191406</ele>
        <time>2017-03-22T13:36:03Z</time>
      </trkpt>
      <trkpt lat="45.59731" lon="4.39749">
        <ele>523.09460449219</ele>
        <time>2017-03-22T13:36:20Z</time>
      </trkpt>
      <trkpt lat="45.59746" lon="4.39753">
        <ele>522.61389160156</ele>
        <time>2017-03-22T13:36:37Z</time>
      </trkpt>
      <trkpt lat="45.59748" lon="4.39752">
        <ele>522.61389160156</ele>
        <time>2017-03-22T13:36:39Z</time>
      </trkpt>
      <trkpt lat="45.5975" lon="4.3975">
        <ele>526.93981933594</ele>
        <time>2017-03-22T13:36:42Z</time>
      </trkpt>
      <trkpt lat="45.59753" lon="4.39742">
        <ele>534.14965820312</ele>
        <time>2017-03-22T13:36:55Z</time>
      </trkpt>
      <trkpt lat="45.59751" lon="4.39735">
        <ele>535.59155273438</ele>
        <time>2017-03-22T13:37:01Z</time>
      </trkpt>
      <trkpt lat="45.59751" lon="4.39722">
        <ele>534.14965820312</ele>
        <time>2017-03-22T13:37:11Z</time>
      </trkpt>
      <trkpt lat="45.59755" lon="4.39707">
        <ele>532.22705078125</ele>
        <time>2017-03-22T13:37:24Z</time>
      </trkpt>
      <trkpt lat="45.59758" lon="4.39705">
        <ele>531.74633789062</ele>
        <time>2017-03-22T13:37:27Z</time>
      </trkpt>
      <trkpt lat="45.59761" lon="4.39702">
        <ele>531.26574707031</ele>
        <time>2017-03-22T13:37:31Z</time>
      </trkpt>
      <trkpt lat="45.59778" lon="4.39713">
        <ele>532.22705078125</ele>
        <time>2017-03-22T13:37:46Z</time>
      </trkpt>
      <trkpt lat="45.59786" lon="4.39726">
        <ele>531.26574707031</ele>
        <time>2017-03-22T13:38:00Z</time>
      </trkpt>
      <trkpt lat="45.59796" lon="4.39735">
        <ele>532.22705078125</ele>
        <time>2017-03-22T13:38:14Z</time>
      </trkpt>
      <trkpt lat="45.59811" lon="4.39746">
        <ele>536.55310058594</ele>
        <time>2017-03-22T13:38:30Z</time>
      </trkpt>
      <trkpt lat="45.59818" lon="4.39748">
        <ele>540.39831542969</ele>
        <time>2017-03-22T13:38:42Z</time>
      </trkpt>
      <trkpt lat="45.59832" lon="4.39757">
        <ele>543.28210449219</ele>
        <time>2017-03-22T13:38:57Z</time>
      </trkpt>
      <trkpt lat="45.59843" lon="4.39763">
        <ele>543.28210449219</ele>
        <time>2017-03-22T13:39:08Z</time>
      </trkpt>
      <trkpt lat="45.59856" lon="4.39773">
        <ele>543.76281738281</ele>
        <time>2017-03-22T13:39:22Z</time>
      </trkpt>
      <trkpt lat="45.59859" lon="4.39775">
        <ele>542.32092285156</ele>
        <time>2017-03-22T13:39:25Z</time>
      </trkpt>
      <trkpt lat="45.59862" lon="4.39776">
        <ele>542.80151367188</ele>
        <time>2017-03-22T13:39:28Z</time>
      </trkpt>
      <trkpt lat="45.59877" lon="4.39782">
        <ele>544.24365234375</ele>
        <time>2017-03-22T13:39:42Z</time>
      </trkpt>
      <trkpt lat="45.59889" lon="4.39789">
        <ele>547.60815429688</ele>
        <time>2017-03-22T13:39:55Z</time>
      </trkpt>
      <trkpt lat="45.599" lon="4.3979">
        <ele>551.45336914062</ele>
        <time>2017-03-22T13:40:08Z</time>
      </trkpt>
      <trkpt lat="45.59902" lon="4.39789">
        <ele>551.93408203125</ele>
        <time>2017-03-22T13:40:10Z</time>
      </trkpt>
      <trkpt lat="45.59912" lon="4.39792">
        <ele>549.53076171875</ele>
        <time>2017-03-22T13:40:22Z</time>
      </trkpt>
      <trkpt lat="45.59929" lon="4.39795">
        <ele>553.3759765625</ele>
        <time>2017-03-22T13:40:37Z</time>
      </trkpt>
      <trkpt lat="45.59936" lon="4.39797">
        <ele>554.81787109375</ele>
        <time>2017-03-22T13:40:46Z</time>
      </trkpt>
      <trkpt lat="45.59939" lon="4.39797">
        <ele>554.81787109375</ele>
        <time>2017-03-22T13:40:49Z</time>
      </trkpt>
      <trkpt lat="45.59954" lon="4.39794">
        <ele>550.4921875</ele>
        <time>2017-03-22T13:41:04Z</time>
      </trkpt>
      <trkpt lat="45.59964" lon="4.3979">
        <ele>545.20483398438</ele>
        <time>2017-03-22T13:41:15Z</time>
      </trkpt>
      <trkpt lat="45.59968" lon="4.39788">
        <ele>544.72424316406</ele>
        <time>2017-03-22T13:41:19Z</time>
      </trkpt>
      <trkpt lat="45.59972" lon="4.39788">
        <ele>544.72424316406</ele>
        <time>2017-03-22T13:41:23Z</time>
      </trkpt>
      <trkpt lat="45.59985" lon="4.39783">
        <ele>545.20483398438</ele>
        <time>2017-03-22T13:41:37Z</time>
      </trkpt>
      <trkpt lat="45.60004" lon="4.39774">
        <ele>547.60815429688</ele>
        <time>2017-03-22T13:41:55Z</time>
      </trkpt>
      <trkpt lat="45.60024" lon="4.39756">
        <ele>548.5693359375</ele>
        <time>2017-03-22T13:42:16Z</time>
      </trkpt>
      <trkpt lat="45.60028" lon="4.39756">
        <ele>548.0888671875</ele>
        <time>2017-03-22T13:42:33Z</time>
      </trkpt>
      <trkpt lat="45.60035" lon="4.39747">
        <ele>552.89526367188</ele>
        <time>2017-03-22T13:46:13Z</time>
      </trkpt>
      <trkpt lat="45.60032" lon="4.39732">
        <ele>554.33740234375</ele>
        <time>2017-03-22T13:46:26Z</time>
      </trkpt>
      <trkpt lat="45.6003" lon="4.39713">
        <ele>554.33740234375</ele>
        <time>2017-03-22T13:46:40Z</time>
      </trkpt>
      <trkpt lat="45.6003" lon="4.39705">
        <ele>553.85668945312</ele>
        <time>2017-03-22T13:46:45Z</time>
      </trkpt>
      <trkpt lat="45.60029" lon="4.39683">
        <ele>550.97265625</ele>
        <time>2017-03-22T13:47:02Z</time>
      </trkpt>
      <trkpt lat="45.60028" lon="4.39667">
        <ele>548.0888671875</ele>
        <time>2017-03-22T13:47:13Z</time>
      </trkpt>
      <trkpt lat="45.60018" lon="4.39647">
        <ele>543.76281738281</ele>
        <time>2017-03-22T13:47:29Z</time>
      </trkpt>
      <trkpt lat="45.6001" lon="4.39632">
        <ele>540.87890625</ele>
        <time>2017-03-22T13:47:42Z</time>
      </trkpt>
      <trkpt lat="45.60002" lon="4.3962">
        <ele>537.99499511719</ele>
        <time>2017-03-22T13:47:55Z</time>
      </trkpt>
      <trkpt lat="45.59998" lon="4.39615">
        <ele>537.99499511719</ele>
        <time>2017-03-22T13:47:58Z</time>
      </trkpt>
      <trkpt lat="45.59988" lon="4.39597">
        <ele>537.03369140625</ele>
        <time>2017-03-22T13:48:12Z</time>
      </trkpt>
      <trkpt lat="45.59987" lon="4.39589">
        <ele>536.55310058594</ele>
        <time>2017-03-22T13:48:19Z</time>
      </trkpt>
      <trkpt lat="45.60001" lon="4.39571">
        <ele>536.55310058594</ele>
        <time>2017-03-22T13:48:36Z</time>
      </trkpt>
      <trkpt lat="45.60007" lon="4.39561">
        <ele>535.59155273438</ele>
        <time>2017-03-22T13:48:44Z</time>
      </trkpt>
      <trkpt lat="45.60008" lon="4.3955">
        <ele>535.11096191406</ele>
        <time>2017-03-22T13:48:51Z</time>
      </trkpt>
      <trkpt lat="45.60007" lon="4.39547">
        <ele>535.11096191406</ele>
        <time>2017-03-22T13:48:53Z</time>
      </trkpt>
      <trkpt lat="45.60011" lon="4.39523">
        <ele>532.22705078125</ele>
        <time>2017-03-22T13:49:07Z</time>
      </trkpt>
      <trkpt lat="45.60014" lon="4.395">
        <ele>529.82373046875</ele>
        <time>2017-03-22T13:49:20Z</time>
      </trkpt>
      <trkpt lat="45.60016" lon="4.39479">
        <ele>528.86254882812</ele>
        <time>2017-03-22T13:49:32Z</time>
      </trkpt>
      <trkpt lat="45.60017" lon="4.39468">
        <ele>527.90100097656</ele>
        <time>2017-03-22T13:49:39Z</time>
      </trkpt>
      <trkpt lat="45.60024" lon="4.39453">
        <ele>524.05578613281</ele>
        <time>2017-03-22T13:49:54Z</time>
      </trkpt>
      <trkpt lat="45.60037" lon="4.39461">
        <ele>521.17199707031</ele>
        <time>2017-03-22T13:50:07Z</time>
      </trkpt>
      <trkpt lat="45.60041" lon="4.39467">
        <ele>519.24926757812</ele>
        <time>2017-03-22T13:50:11Z</time>
      </trkpt>
      <trkpt lat="45.60056" lon="4.39479">
        <ele>514.44262695312</ele>
        <time>2017-03-22T13:50:26Z</time>
      </trkpt>
      <trkpt lat="45.60069" lon="4.3949">
        <ele>513.96203613281</ele>
        <time>2017-03-22T13:50:38Z</time>
      </trkpt>
      <trkpt lat="45.60082" lon="4.39497">
        <ele>514.92333984375</ele>
        <time>2017-03-22T13:50:52Z</time>
      </trkpt>
      <trkpt lat="45.60095" lon="4.39499">
        <ele>518.28784179688</ele>
        <time>2017-03-22T13:51:08Z</time>
      </trkpt>
      <trkpt lat="45.60107" lon="4.39487">
        <ele>523.09460449219</ele>
        <time>2017-03-22T13:51:21Z</time>
      </trkpt>
      <trkpt lat="45.6011" lon="4.39486">
        <ele>523.5751953125</ele>
        <time>2017-03-22T13:51:23Z</time>
      </trkpt>
      <trkpt lat="45.60126" lon="4.39477">
        <ele>522.13317871094</ele>
        <time>2017-03-22T13:51:37Z</time>
      </trkpt>
      <trkpt lat="45.60139" lon="4.39471">
        <ele>522.61389160156</ele>
        <time>2017-03-22T13:51:48Z</time>
      </trkpt>
      <trkpt lat="45.60153" lon="4.39463">
        <ele>521.65258789062</ele>
        <time>2017-03-22T13:52:03Z</time>
      </trkpt>
      <trkpt lat="45.60173" lon="4.39454">
        <ele>522.61389160156</ele>
        <time>2017-03-22T13:52:19Z</time>
      </trkpt>
      <trkpt lat="45.60187" lon="4.39439">
        <ele>523.5751953125</ele>
        <time>2017-03-22T13:52:34Z</time>
      </trkpt>
      <trkpt lat="45.60198" lon="4.39426">
        <ele>525.97839355469</ele>
        <time>2017-03-22T13:52:45Z</time>
      </trkpt>
      <trkpt lat="45.60208" lon="4.39415">
        <ele>526.45910644531</ele>
        <time>2017-03-22T13:52:56Z</time>
      </trkpt>
      <trkpt lat="45.6021" lon="4.39411">
        <ele>526.45910644531</ele>
        <time>2017-03-22T13:52:58Z</time>
      </trkpt>
      <trkpt lat="45.60221" lon="4.39397">
        <ele>525.01721191406</ele>
        <time>2017-03-22T13:53:12Z</time>
      </trkpt>
      <trkpt lat="45.60234" lon="4.39378">
        <ele>524.05578613281</ele>
        <time>2017-03-22T13:53:27Z</time>
      </trkpt>
      <trkpt lat="45.6025" lon="4.39363">
        <ele>524.53649902344</ele>
        <time>2017-03-22T13:53:42Z</time>
      </trkpt>
      <trkpt lat="45.60261" lon="4.39353">
        <ele>521.65258789062</ele>
        <time>2017-03-22T13:53:55Z</time>
      </trkpt>
      <trkpt lat="45.60279" lon="4.39339">
        <ele>523.5751953125</ele>
        <time>2017-03-22T13:54:10Z</time>
      </trkpt>
      <trkpt lat="45.60292" lon="4.39321">
        <ele>524.05578613281</ele>
        <time>2017-03-22T13:54:26Z</time>
      </trkpt>
      <trkpt lat="45.60295" lon="4.39316">
        <ele>523.5751953125</ele>
        <time>2017-03-22T13:54:31Z</time>
      </trkpt>
      <trkpt lat="45.60301" lon="4.39308">
        <ele>522.13317871094</ele>
        <time>2017-03-22T13:54:38Z</time>
      </trkpt>
      <trkpt lat="45.60303" lon="4.39304">
        <ele>521.17199707031</ele>
        <time>2017-03-22T13:54:41Z</time>
      </trkpt>
      <trkpt lat="45.60314" lon="4.39295">
        <ele>519.24926757812</ele>
        <time>2017-03-22T13:54:52Z</time>
      </trkpt>
      <trkpt lat="45.60325" lon="4.39285">
        <ele>514.92333984375</ele>
        <time>2017-03-22T13:55:05Z</time>
      </trkpt>
      <trkpt lat="45.60335" lon="4.39274">
        <ele>514.92333984375</ele>
        <time>2017-03-22T13:55:16Z</time>
      </trkpt>
      <trkpt lat="45.60348" lon="4.3926">
        <ele>516.365234375</ele>
        <time>2017-03-22T13:55:30Z</time>
      </trkpt>
      <trkpt lat="45.60368" lon="4.39246">
        <ele>519.72985839844</ele>
        <time>2017-03-22T13:55:44Z</time>
      </trkpt>
      <trkpt lat="45.60383" lon="4.39244">
        <ele>520.21057128906</ele>
        <time>2017-03-22T13:55:58Z</time>
      </trkpt>
      <trkpt lat="45.60394" lon="4.39241">
        <ele>518.7685546875</ele>
        <time>2017-03-22T13:56:12Z</time>
      </trkpt>
      <trkpt lat="45.6041" lon="4.39241">
        <ele>519.72985839844</ele>
        <time>2017-03-22T13:56:27Z</time>
      </trkpt>
      <trkpt lat="45.60411" lon="4.39241">
        <ele>522.13317871094</ele>
        <time>2017-03-22T13:56:57Z</time>
      </trkpt>
      <trkpt lat="45.60408" lon="4.39253">
        <ele>524.53649902344</ele>
        <time>2017-03-22T13:57:12Z</time>
      </trkpt>
      <trkpt lat="45.60408" lon="4.39255">
        <ele>524.53649902344</ele>
        <time>2017-03-22T13:57:13Z</time>
      </trkpt>
      <trkpt lat="45.60405" lon="4.39261">
        <ele>525.49780273438</ele>
        <time>2017-03-22T13:57:17Z</time>
      </trkpt>
      <trkpt lat="45.60403" lon="4.39279">
        <ele>526.93981933594</ele>
        <time>2017-03-22T13:57:28Z</time>
      </trkpt>
      <trkpt lat="45.60397" lon="4.393">
        <ele>526.93981933594</ele>
        <time>2017-03-22T13:57:42Z</time>
      </trkpt>
      <trkpt lat="45.60394" lon="4.39318">
        <ele>525.01721191406</ele>
        <time>2017-03-22T13:57:55Z</time>
      </trkpt>
      <trkpt lat="45.60389" lon="4.39336">
        <ele>525.01721191406</ele>
        <time>2017-03-22T13:58:07Z</time>
      </trkpt>
      <trkpt lat="45.60385" lon="4.39361">
        <ele>526.93981933594</ele>
        <time>2017-03-22T13:58:22Z</time>
      </trkpt>
      <trkpt lat="45.60382" lon="4.39384">
        <ele>527.42041015625</ele>
        <time>2017-03-22T13:58:37Z</time>
      </trkpt>
      <trkpt lat="45.6038" lon="4.394">
        <ele>528.3818359375</ele>
        <time>2017-03-22T13:58:47Z</time>
      </trkpt>
      <trkpt lat="45.60374" lon="4.39423">
        <ele>529.34313964844</ele>
        <time>2017-03-22T13:59:01Z</time>
      </trkpt>
      <trkpt lat="45.60371" lon="4.39439">
        <ele>529.82373046875</ele>
        <time>2017-03-22T13:59:15Z</time>
      </trkpt>
      <trkpt lat="45.60368" lon="4.39456">
        <ele>531.26574707031</ele>
        <time>2017-03-22T13:59:29Z</time>
      </trkpt>
      <trkpt lat="45.6037" lon="4.39473">
        <ele>534.14965820312</ele>
        <time>2017-03-22T13:59:41Z</time>
      </trkpt>
      <trkpt lat="45.6037" lon="4.39477">
        <ele>534.63037109375</ele>
        <time>2017-03-22T13:59:44Z</time>
      </trkpt>
      <trkpt lat="45.60369" lon="4.39499">
        <ele>534.63037109375</ele>
        <time>2017-03-22T13:59:58Z</time>
      </trkpt>
      <trkpt lat="45.60369" lon="4.39516">
        <ele>533.18835449219</ele>
        <time>2017-03-22T14:00:09Z</time>
      </trkpt>
      <trkpt lat="45.60366" lon="4.39529">
        <ele>535.59155273438</ele>
        <time>2017-03-22T14:00:19Z</time>
      </trkpt>
      <trkpt lat="45.60368" lon="4.3954">
        <ele>536.07238769531</ele>
        <time>2017-03-22T14:00:34Z</time>
      </trkpt>
      <trkpt lat="45.60368" lon="4.39543">
        <ele>535.11096191406</ele>
        <time>2017-03-22T14:00:50Z</time>
      </trkpt>
      <trkpt lat="45.60371" lon="4.39545">
        <ele>535.59155273438</ele>
        <time>2017-03-22T14:00:59Z</time>
      </trkpt>
      <trkpt lat="45.60388" lon="4.39565">
        <ele>533.18835449219</ele>
        <time>2017-03-22T14:01:14Z</time>
      </trkpt>
      <trkpt lat="45.60399" lon="4.39584">
        <ele>534.14965820312</ele>
        <time>2017-03-22T14:01:28Z</time>
      </trkpt>
      <trkpt lat="45.60409" lon="4.39601">
        <ele>534.14965820312</ele>
        <time>2017-03-22T14:01:40Z</time>
      </trkpt>
      <trkpt lat="45.60419" lon="4.39623">
        <ele>534.63037109375</ele>
        <time>2017-03-22T14:01:55Z</time>
      </trkpt>
      <trkpt lat="45.60426" lon="4.39637">
        <ele>533.18835449219</ele>
        <time>2017-03-22T14:02:05Z</time>
      </trkpt>
      <trkpt lat="45.60428" lon="4.3965">
        <ele>533.6689453125</ele>
        <time>2017-03-22T14:02:15Z</time>
      </trkpt>
      <trkpt lat="45.60431" lon="4.39675">
        <ele>531.74633789062</ele>
        <time>2017-03-22T14:02:30Z</time>
      </trkpt>
      <trkpt lat="45.60429" lon="4.39707">
        <ele>528.3818359375</ele>
        <time>2017-03-22T14:02:49Z</time>
      </trkpt>
      <trkpt lat="45.60424" lon="4.39732">
        <ele>525.97839355469</ele>
        <time>2017-03-22T14:03:03Z</time>
      </trkpt>
      <trkpt lat="45.60419" lon="4.39758">
        <ele>523.5751953125</ele>
        <time>2017-03-22T14:03:18Z</time>
      </trkpt>
      <trkpt lat="45.60413" lon="4.39779">
        <ele>522.13317871094</ele>
        <time>2017-03-22T14:03:31Z</time>
      </trkpt>
      <trkpt lat="45.60406" lon="4.39803">
        <ele>522.13317871094</ele>
        <time>2017-03-22T14:03:46Z</time>
      </trkpt>
      <trkpt lat="45.60396" lon="4.39828">
        <ele>523.09460449219</ele>
        <time>2017-03-22T14:04:00Z</time>
      </trkpt>
      <trkpt lat="45.60385" lon="4.39853">
        <ele>521.17199707031</ele>
        <time>2017-03-22T14:04:14Z</time>
      </trkpt>
      <trkpt lat="45.60376" lon="4.39875">
        <ele>524.53649902344</ele>
        <time>2017-03-22T14:04:27Z</time>
      </trkpt>
      <trkpt lat="45.60367" lon="4.39897">
        <ele>524.05578613281</ele>
        <time>2017-03-22T14:04:41Z</time>
      </trkpt>
      <trkpt lat="45.60366" lon="4.39909">
        <ele>524.05578613281</ele>
        <time>2017-03-22T14:04:53Z</time>
      </trkpt>
      <trkpt lat="45.60365" lon="4.39914">
        <ele>524.05578613281</ele>
        <time>2017-03-22T14:04:57Z</time>
      </trkpt>
      <trkpt lat="45.60359" lon="4.39927">
        <ele>525.01721191406</ele>
        <time>2017-03-22T14:05:15Z</time>
      </trkpt>
      <trkpt lat="45.60353" lon="4.39939">
        <ele>526.45910644531</ele>
        <time>2017-03-22T14:05:33Z</time>
      </trkpt>
      <trkpt lat="45.60344" lon="4.3995">
        <ele>525.49780273438</ele>
        <time>2017-03-22T14:05:47Z</time>
      </trkpt>
      <trkpt lat="45.6034" lon="4.39959">
        <ele>525.01721191406</ele>
        <time>2017-03-22T14:05:57Z</time>
      </trkpt>
      <trkpt lat="45.60338" lon="4.39961">
        <ele>524.53649902344</ele>
        <time>2017-03-22T14:05:59Z</time>
      </trkpt>
      <trkpt lat="45.60328" lon="4.39983">
        <ele>526.93981933594</ele>
        <time>2017-03-22T14:06:14Z</time>
      </trkpt>
      <trkpt lat="45.60328" lon="4.39995">
        <ele>528.86254882812</ele>
        <time>2017-03-22T14:06:29Z</time>
      </trkpt>
      <trkpt lat="45.60329" lon="4.40006">
        <ele>529.82373046875</ele>
        <time>2017-03-22T14:06:38Z</time>
      </trkpt>
      <trkpt lat="45.60331" lon="4.4001">
        <ele>529.82373046875</ele>
        <time>2017-03-22T14:06:41Z</time>
      </trkpt>
      <trkpt lat="45.60335" lon="4.40019">
        <ele>531.26574707031</ele>
        <time>2017-03-22T14:06:48Z</time>
      </trkpt>
      <trkpt lat="45.60339" lon="4.40027">
        <ele>529.34313964844</ele>
        <time>2017-03-22T14:06:53Z</time>
      </trkpt>
      <trkpt lat="45.60345" lon="4.40056">
        <ele>529.34313964844</ele>
        <time>2017-03-22T14:07:08Z</time>
      </trkpt>
      <trkpt lat="45.60353" lon="4.40086">
        <ele>530.30444335938</ele>
        <time>2017-03-22T14:07:24Z</time>
      </trkpt>
      <trkpt lat="45.60361" lon="4.40118">
        <ele>534.14965820312</ele>
        <time>2017-03-22T14:07:40Z</time>
      </trkpt>
      <trkpt lat="45.60366" lon="4.40132">
        <ele>533.18835449219</ele>
        <time>2017-03-22T14:07:48Z</time>
      </trkpt>
      <trkpt lat="45.60375" lon="4.40163">
        <ele>533.18835449219</ele>
        <time>2017-03-22T14:08:04Z</time>
      </trkpt>
      <trkpt lat="45.60379" lon="4.40181">
        <ele>533.18835449219</ele>
        <time>2017-03-22T14:08:14Z</time>
      </trkpt>
      <trkpt lat="45.60384" lon="4.40192">
        <ele>532.22705078125</ele>
        <time>2017-03-22T14:08:20Z</time>
      </trkpt>
      <trkpt lat="45.60389" lon="4.40218">
        <ele>532.22705078125</ele>
        <time>2017-03-22T14:08:36Z</time>
      </trkpt>
      <trkpt lat="45.60391" lon="4.40228">
        <ele>531.74633789062</ele>
        <time>2017-03-22T14:08:41Z</time>
      </trkpt>
      <trkpt lat="45.60389" lon="4.40242">
        <ele>532.70776367188</ele>
        <time>2017-03-22T14:08:50Z</time>
      </trkpt>
      <trkpt lat="45.60384" lon="4.40256">
        <ele>532.22705078125</ele>
        <time>2017-03-22T14:09:02Z</time>
      </trkpt>
      <trkpt lat="45.60372" lon="4.40273">
        <ele>535.59155273438</ele>
        <time>2017-03-22T14:09:16Z</time>
      </trkpt>
      <trkpt lat="45.60364" lon="4.4028">
        <ele>537.51428222656</ele>
        <time>2017-03-22T14:09:28Z</time>
      </trkpt>
      <trkpt lat="45.60352" lon="4.40295">
        <ele>537.03369140625</ele>
        <time>2017-03-22T14:09:43Z</time>
      </trkpt>
      <trkpt lat="45.60338" lon="4.40307">
        <ele>537.99499511719</ele>
        <time>2017-03-22T14:09:58Z</time>
      </trkpt>
      <trkpt lat="45.60324" lon="4.40319">
        <ele>541.35949707031</ele>
        <time>2017-03-22T14:10:13Z</time>
      </trkpt>
      <trkpt lat="45.60319" lon="4.40321">
        <ele>541.84020996094</ele>
        <time>2017-03-22T14:10:20Z</time>
      </trkpt>
      <trkpt lat="45.60308" lon="4.40329">
        <ele>541.35949707031</ele>
        <time>2017-03-22T14:10:32Z</time>
      </trkpt>
      <trkpt lat="45.60306" lon="4.40331">
        <ele>540.87890625</ele>
        <time>2017-03-22T14:10:35Z</time>
      </trkpt>
      <trkpt lat="45.60293" lon="4.40336">
        <ele>542.80151367188</ele>
        <time>2017-03-22T14:10:51Z</time>
      </trkpt>
      <trkpt lat="45.60289" lon="4.40341">
        <ele>543.28210449219</ele>
        <time>2017-03-22T14:10:56Z</time>
      </trkpt>
      <trkpt lat="45.60286" lon="4.4036">
        <ele>546.64685058594</ele>
        <time>2017-03-22T14:11:11Z</time>
      </trkpt>
      <trkpt lat="45.60285" lon="4.40364">
        <ele>546.64685058594</ele>
        <time>2017-03-22T14:11:15Z</time>
      </trkpt>
      <trkpt lat="45.60284" lon="4.40385">
        <ele>548.5693359375</ele>
        <time>2017-03-22T14:11:31Z</time>
      </trkpt>
      <trkpt lat="45.60283" lon="4.40405">
        <ele>550.4921875</ele>
        <time>2017-03-22T14:11:44Z</time>
      </trkpt>
      <trkpt lat="45.60281" lon="4.4042">
        <ele>553.3759765625</ele>
        <time>2017-03-22T14:11:52Z</time>
      </trkpt>
      <trkpt lat="45.60281" lon="4.40425">
        <ele>553.3759765625</ele>
        <time>2017-03-22T14:11:56Z</time>
      </trkpt>
      <trkpt lat="45.60279" lon="4.40441">
        <ele>552.41455078125</ele>
        <time>2017-03-22T14:12:11Z</time>
      </trkpt>
      <trkpt lat="45.60276" lon="4.40465">
        <ele>553.85668945312</ele>
        <time>2017-03-22T14:12:25Z</time>
      </trkpt>
      <trkpt lat="45.60275" lon="4.40474">
        <ele>555.29858398438</ele>
        <time>2017-03-22T14:12:31Z</time>
      </trkpt>
      <trkpt lat="45.60271" lon="4.40494">
        <ele>554.81787109375</ele>
        <time>2017-03-22T14:12:43Z</time>
      </trkpt>
      <trkpt lat="45.6027" lon="4.40505">
        <ele>555.29858398438</ele>
        <time>2017-03-22T14:12:50Z</time>
      </trkpt>
      <trkpt lat="45.6027" lon="4.40517">
        <ele>556.26000976562</ele>
        <time>2017-03-22T14:12:58Z</time>
      </trkpt>
      <trkpt lat="45.60269" lon="4.40524">
        <ele>554.81787109375</ele>
        <time>2017-03-22T14:13:03Z</time>
      </trkpt>
      <trkpt lat="45.60269" lon="4.40535">
        <ele>552.89526367188</ele>
        <time>2017-03-22T14:13:11Z</time>
      </trkpt>
      <trkpt lat="45.60262" lon="4.40546">
        <ele>548.0888671875</ele>
        <time>2017-03-22T14:13:25Z</time>
      </trkpt>
      <trkpt lat="45.60259" lon="4.40553">
        <ele>548.5693359375</ele>
        <time>2017-03-22T14:13:29Z</time>
      </trkpt>
      <trkpt lat="45.60261" lon="4.40574">
        <ele>549.05004882812</ele>
        <time>2017-03-22T14:13:43Z</time>
      </trkpt>
      <trkpt lat="45.60262" lon="4.40579">
        <ele>549.05004882812</ele>
        <time>2017-03-22T14:13:46Z</time>
      </trkpt>
      <trkpt lat="45.60266" lon="4.40589">
        <ele>550.97265625</ele>
        <time>2017-03-22T14:13:54Z</time>
      </trkpt>
      <trkpt lat="45.60267" lon="4.40611">
        <ele>554.33740234375</ele>
        <time>2017-03-22T14:14:07Z</time>
      </trkpt>
      <trkpt lat="45.60266" lon="4.40619">
        <ele>554.81787109375</ele>
        <time>2017-03-22T14:14:12Z</time>
      </trkpt>
      <trkpt lat="45.60259" lon="4.40635">
        <ele>554.81787109375</ele>
        <time>2017-03-22T14:14:28Z</time>
      </trkpt>
      <trkpt lat="45.60253" lon="4.40657">
        <ele>558.66333007812</ele>
        <time>2017-03-22T14:14:43Z</time>
      </trkpt>
      <trkpt lat="45.60248" lon="4.40672">
        <ele>557.7021484375</ele>
        <time>2017-03-22T14:14:55Z</time>
      </trkpt>
      <trkpt lat="45.60241" lon="4.40692">
        <ele>559.14404296875</ele>
        <time>2017-03-22T14:15:10Z</time>
      </trkpt>
      <trkpt lat="45.60234" lon="4.40713">
        <ele>560.10522460938</ele>
        <time>2017-03-22T14:15:26Z</time>
      </trkpt>
      <trkpt lat="45.60226" lon="4.40731">
        <ele>561.54736328125</ele>
        <time>2017-03-22T14:15:41Z</time>
      </trkpt>
      <trkpt lat="45.60217" lon="4.40748">
        <ele>560.5859375</ele>
        <time>2017-03-22T14:15:58Z</time>
      </trkpt>
      <trkpt lat="45.60208" lon="4.40762">
        <ele>560.10522460938</ele>
        <time>2017-03-22T14:16:11Z</time>
      </trkpt>
      <trkpt lat="45.602" lon="4.40787">
        <ele>563.95043945312</ele>
        <time>2017-03-22T14:16:27Z</time>
      </trkpt>
      <trkpt lat="45.60197" lon="4.40798">
        <ele>565.392578125</ele>
        <time>2017-03-22T14:16:34Z</time>
      </trkpt>
      <trkpt lat="45.60195" lon="4.4082">
        <ele>568.75708007812</ele>
        <time>2017-03-22T14:16:50Z</time>
      </trkpt>
      <trkpt lat="45.60191" lon="4.4084">
        <ele>569.23779296875</ele>
        <time>2017-03-22T14:17:06Z</time>
      </trkpt>
      <trkpt lat="45.60187" lon="4.40861">
        <ele>572.12182617188</ele>
        <time>2017-03-22T14:17:22Z</time>
      </trkpt>
      <trkpt lat="45.60183" lon="4.4088">
        <ele>573.56396484375</ele>
        <time>2017-03-22T14:17:36Z</time>
      </trkpt>
      <trkpt lat="45.60175" lon="4.40901">
        <ele>576.44775390625</ele>
        <time>2017-03-22T14:17:53Z</time>
      </trkpt>
      <trkpt lat="45.60175" lon="4.40902">
        <ele>576.44775390625</ele>
        <time>2017-03-22T14:17:54Z</time>
      </trkpt>
      <trkpt lat="45.6018" lon="4.40911">
        <ele>578.37036132812</ele>
        <time>2017-03-22T14:17:59Z</time>
      </trkpt>
      <trkpt lat="45.60184" lon="4.40917">
        <ele>579.33154296875</ele>
        <time>2017-03-22T14:18:04Z</time>
      </trkpt>
      <trkpt lat="45.60186" lon="4.40933">
        <ele>579.33154296875</ele>
        <time>2017-03-22T14:18:18Z</time>
      </trkpt>
      <trkpt lat="45.60185" lon="4.40936">
        <ele>578.85107421875</ele>
        <time>2017-03-22T14:18:20Z</time>
      </trkpt>
      <trkpt lat="45.6018" lon="4.40944">
        <ele>577.8896484375</ele>
        <time>2017-03-22T14:18:35Z</time>
      </trkpt>
      <trkpt lat="45.60183" lon="4.40951">
        <ele>578.37036132812</ele>
        <time>2017-03-22T14:18:47Z</time>
      </trkpt>
      <trkpt lat="45.60189" lon="4.40952">
        <ele>576.44775390625</ele>
        <time>2017-03-22T14:18:58Z</time>
      </trkpt>
      <trkpt lat="45.60191" lon="4.40952">
        <ele>575.96704101562</ele>
        <time>2017-03-22T14:19:00Z</time>
      </trkpt>
      <trkpt lat="45.602" lon="4.40948">
        <ele>575.005859375</ele>
        <time>2017-03-22T14:19:14Z</time>
      </trkpt>
      <trkpt lat="45.60203" lon="4.40949">
        <ele>574.52514648438</ele>
        <time>2017-03-22T14:19:27Z</time>
      </trkpt>
      <trkpt lat="45.60209" lon="4.4095">
        <ele>573.56396484375</ele>
        <time>2017-03-22T14:19:37Z</time>
      </trkpt>
      <trkpt lat="45.60223" lon="4.40953">
        <ele>570.19897460938</ele>
        <time>2017-03-22T14:19:51Z</time>
      </trkpt>
      <trkpt lat="45.60237" lon="4.40958">
        <ele>567.79565429688</ele>
        <time>2017-03-22T14:20:05Z</time>
      </trkpt>
      <trkpt lat="45.60252" lon="4.40962">
        <ele>566.35375976562</ele>
        <time>2017-03-22T14:20:21Z</time>
      </trkpt>
      <trkpt lat="45.60265" lon="4.40966">
        <ele>562.9892578125</ele>
        <time>2017-03-22T14:20:35Z</time>
      </trkpt>
      <trkpt lat="45.60268" lon="4.40965">
        <ele>562.02807617188</ele>
        <time>2017-03-22T14:20:38Z</time>
      </trkpt>
      <trkpt lat="45.60271" lon="4.40965">
        <ele>561.06665039062</ele>
        <time>2017-03-22T14:20:48Z</time>
      </trkpt>
      <trkpt lat="45.60287" lon="4.40975">
        <ele>561.54736328125</ele>
        <time>2017-03-22T14:21:04Z</time>
      </trkpt>
      <trkpt lat="45.60301" lon="4.40983">
        <ele>562.02807617188</ele>
        <time>2017-03-22T14:21:18Z</time>
      </trkpt>
      <trkpt lat="45.60306" lon="4.40988">
        <ele>560.5859375</ele>
        <time>2017-03-22T14:21:32Z</time>
      </trkpt>
      <trkpt lat="45.60307" lon="4.41006">
        <ele>559.14404296875</ele>
        <time>2017-03-22T14:21:48Z</time>
      </trkpt>
      <trkpt lat="45.60306" lon="4.41007">
        <ele>559.62475585938</ele>
        <time>2017-03-22T14:21:50Z</time>
      </trkpt>
      <trkpt lat="45.60307" lon="4.41024">
        <ele>557.22143554688</ele>
        <time>2017-03-22T14:22:05Z</time>
      </trkpt>
      <trkpt lat="45.60307" lon="4.41043">
        <ele>555.779296875</ele>
        <time>2017-03-22T14:22:18Z</time>
      </trkpt>
      <trkpt lat="45.60307" lon="4.41075">
        <ele>554.81787109375</ele>
        <time>2017-03-22T14:22:34Z</time>
      </trkpt>
      <trkpt lat="45.60313" lon="4.4109">
        <ele>552.41455078125</ele>
        <time>2017-03-22T14:22:48Z</time>
      </trkpt>
      <trkpt lat="45.6032" lon="4.41097">
        <ele>550.97265625</ele>
        <time>2017-03-22T14:23:03Z</time>
      </trkpt>
      <trkpt lat="45.6033" lon="4.4111">
        <ele>550.97265625</ele>
        <time>2017-03-22T14:23:19Z</time>
      </trkpt>
      <trkpt lat="45.60338" lon="4.41127">
        <ele>549.53076171875</ele>
        <time>2017-03-22T14:23:32Z</time>
      </trkpt>
      <trkpt lat="45.60342" lon="4.41129">
        <ele>549.53076171875</ele>
        <time>2017-03-22T14:23:35Z</time>
      </trkpt>
      <trkpt lat="45.60346" lon="4.41137">
        <ele>547.60815429688</ele>
        <time>2017-03-22T14:23:42Z</time>
      </trkpt>
      <trkpt lat="45.60352" lon="4.4114">
        <ele>547.60815429688</ele>
        <time>2017-03-22T14:23:46Z</time>
      </trkpt>
      <trkpt lat="45.60361" lon="4.41148">
        <ele>550.4921875</ele>
        <time>2017-03-22T14:24:00Z</time>
      </trkpt>
      <trkpt lat="45.60366" lon="4.41157">
        <ele>548.5693359375</ele>
        <time>2017-03-22T14:24:11Z</time>
      </trkpt>
      <trkpt lat="45.6038" lon="4.41173">
        <ele>548.0888671875</ele>
        <time>2017-03-22T14:24:26Z</time>
      </trkpt>
      <trkpt lat="45.60398" lon="4.41188">
        <ele>548.5693359375</ele>
        <time>2017-03-22T14:24:41Z</time>
      </trkpt>
      <trkpt lat="45.60406" lon="4.41209">
        <ele>548.5693359375</ele>
        <time>2017-03-22T14:24:54Z</time>
      </trkpt>
      <trkpt lat="45.60415" lon="4.41221">
        <ele>550.97265625</ele>
        <time>2017-03-22T14:25:08Z</time>
      </trkpt>
      <trkpt lat="45.60414" lon="4.41224">
        <ele>551.45336914062</ele>
        <time>2017-03-22T14:25:33Z</time>
      </trkpt>
      <trkpt lat="45.60412" lon="4.41226">
        <ele>550.01147460938</ele>
        <time>2017-03-22T14:27:17Z</time>
      </trkpt>
      <trkpt lat="45.60401" lon="4.41233">
        <ele>545.20483398438</ele>
        <time>2017-03-22T14:27:32Z</time>
      </trkpt>
      <trkpt lat="45.60391" lon="4.4124">
        <ele>543.76281738281</ele>
        <time>2017-03-22T14:27:46Z</time>
      </trkpt>
      <trkpt lat="45.60377" lon="4.41248">
        <ele>542.32092285156</ele>
        <time>2017-03-22T14:28:00Z</time>
      </trkpt>
      <trkpt lat="45.60373" lon="4.41251">
        <ele>541.35949707031</ele>
        <time>2017-03-22T14:28:04Z</time>
      </trkpt>
      <trkpt lat="45.60357" lon="4.41257">
        <ele>550.4921875</ele>
        <time>2017-03-22T14:28:20Z</time>
      </trkpt>
      <trkpt lat="45.60346" lon="4.41259">
        <ele>550.97265625</ele>
        <time>2017-03-22T14:28:33Z</time>
      </trkpt>
      <trkpt lat="45.60332" lon="4.41256">
        <ele>546.16625976562</ele>
        <time>2017-03-22T14:28:46Z</time>
      </trkpt>
      <trkpt lat="45.60319" lon="4.41251">
        <ele>546.64685058594</ele>
        <time>2017-03-22T14:28:59Z</time>
      </trkpt>
      <trkpt lat="45.60318" lon="4.41251">
        <ele>547.12744140625</ele>
        <time>2017-03-22T14:29:00Z</time>
      </trkpt>
      <trkpt lat="45.60305" lon="4.41246">
        <ele>545.20483398438</ele>
        <time>2017-03-22T14:29:12Z</time>
      </trkpt>
      <trkpt lat="45.60289" lon="4.41241">
        <ele>545.685546875</ele>
        <time>2017-03-22T14:29:26Z</time>
      </trkpt>
      <trkpt lat="45.60273" lon="4.41241">
        <ele>544.24365234375</ele>
        <time>2017-03-22T14:29:40Z</time>
      </trkpt>
      <trkpt lat="45.60257" lon="4.41239">
        <ele>543.28210449219</ele>
        <time>2017-03-22T14:29:57Z</time>
      </trkpt>
      <trkpt lat="45.60241" lon="4.4124">
        <ele>541.35949707031</ele>
        <time>2017-03-22T14:30:09Z</time>
      </trkpt>
      <trkpt lat="45.60228" lon="4.41237">
        <ele>543.76281738281</ele>
        <time>2017-03-22T14:30:21Z</time>
      </trkpt>
      <trkpt lat="45.60214" lon="4.41239">
        <ele>544.24365234375</ele>
        <time>2017-03-22T14:30:35Z</time>
      </trkpt>
      <trkpt lat="45.60198" lon="4.41236">
        <ele>543.28210449219</ele>
        <time>2017-03-22T14:30:50Z</time>
      </trkpt>
      <trkpt lat="45.60186" lon="4.41229">
        <ele>543.76281738281</ele>
        <time>2017-03-22T14:31:02Z</time>
      </trkpt>
      <trkpt lat="45.60173" lon="4.41222">
        <ele>545.685546875</ele>
        <time>2017-03-22T14:31:15Z</time>
      </trkpt>
      <trkpt lat="45.60159" lon="4.41218">
        <ele>545.20483398438</ele>
        <time>2017-03-22T14:31:29Z</time>
      </trkpt>
      <trkpt lat="45.60146" lon="4.41213">
        <ele>550.97265625</ele>
        <time>2017-03-22T14:31:43Z</time>
      </trkpt>
      <trkpt lat="45.60133" lon="4.41206">
        <ele>555.779296875</ele>
        <time>2017-03-22T14:31:56Z</time>
      </trkpt>
      <trkpt lat="45.60122" lon="4.41204">
        <ele>564.43115234375</ele>
        <time>2017-03-22T14:32:10Z</time>
      </trkpt>
      <trkpt lat="45.60117" lon="4.41202">
        <ele>567.31518554688</ele>
        <time>2017-03-22T14:32:28Z</time>
      </trkpt>
      <trkpt lat="45.60105" lon="4.41191">
        <ele>569.71850585938</ele>
        <time>2017-03-22T14:32:45Z</time>
      </trkpt>
      <trkpt lat="45.60092" lon="4.41183">
        <ele>573.08325195312</ele>
        <time>2017-03-22T14:32:59Z</time>
      </trkpt>
      <trkpt lat="45.60082" lon="4.41173">
        <ele>568.75708007812</ele>
        <time>2017-03-22T14:33:12Z</time>
      </trkpt>
      <trkpt lat="45.60074" lon="4.41164">
        <ele>565.87329101562</ele>
        <time>2017-03-22T14:33:21Z</time>
      </trkpt>
      <trkpt lat="45.6006" lon="4.41154">
        <ele>566.35375976562</ele>
        <time>2017-03-22T14:33:36Z</time>
      </trkpt>
      <trkpt lat="45.60061" lon="4.41162">
        <ele>568.2763671875</ele>
        <time>2017-03-22T14:33:52Z</time>
      </trkpt>
      <trkpt lat="45.60066" lon="4.41169">
        <ele>568.2763671875</ele>
        <time>2017-03-22T14:34:05Z</time>
      </trkpt>
      <trkpt lat="45.60068" lon="4.41177">
        <ele>568.75708007812</ele>
        <time>2017-03-22T14:34:19Z</time>
      </trkpt>
      <trkpt lat="45.60069" lon="4.41191">
        <ele>569.71850585938</ele>
        <time>2017-03-22T14:34:33Z</time>
      </trkpt>
      <trkpt lat="45.60068" lon="4.41208">
        <ele>572.6025390625</ele>
        <time>2017-03-22T14:34:47Z</time>
      </trkpt>
      <trkpt lat="45.60064" lon="4.4122">
        <ele>574.52514648438</ele>
        <time>2017-03-22T14:35:42Z</time>
      </trkpt>
      <trkpt lat="45.60062" lon="4.41221">
        <ele>574.52514648438</ele>
        <time>2017-03-22T14:35:44Z</time>
      </trkpt>
      <trkpt lat="45.60055" lon="4.41239">
        <ele>575.96704101562</ele>
        <time>2017-03-22T14:35:58Z</time>
      </trkpt>
      <trkpt lat="45.6005" lon="4.41247">
        <ele>576.44775390625</ele>
        <time>2017-03-22T14:36:13Z</time>
      </trkpt>
      <trkpt lat="45.60044" lon="4.41258">
        <ele>577.8896484375</ele>
        <time>2017-03-22T14:36:31Z</time>
      </trkpt>
      <trkpt lat="45.60036" lon="4.41276">
        <ele>580.29296875</ele>
        <time>2017-03-22T14:36:47Z</time>
      </trkpt>
      <trkpt lat="45.60028" lon="4.41294">
        <ele>583.1767578125</ele>
        <time>2017-03-22T14:36:59Z</time>
      </trkpt>
      <trkpt lat="45.60018" lon="4.41314">
        <ele>586.54150390625</ele>
        <time>2017-03-22T14:37:14Z</time>
      </trkpt>
      <trkpt lat="45.6001" lon="4.41325">
        <ele>590.38696289062</ele>
        <time>2017-03-22T14:37:28Z</time>
      </trkpt>
      <trkpt lat="45.60002" lon="4.41343">
        <ele>594.71264648438</ele>
        <time>2017-03-22T14:37:41Z</time>
      </trkpt>
      <trkpt lat="45.59996" lon="4.4136">
        <ele>595.193359375</ele>
        <time>2017-03-22T14:37:55Z</time>
      </trkpt>
      <trkpt lat="45.5999" lon="4.41379">
        <ele>594.23217773438</ele>
        <time>2017-03-22T14:38:12Z</time>
      </trkpt>
      <trkpt lat="45.59984" lon="4.41393">
        <ele>590.86743164062</ele>
        <time>2017-03-22T14:38:27Z</time>
      </trkpt>
      <trkpt lat="45.5998" lon="4.41408">
        <ele>589.90625</ele>
        <time>2017-03-22T14:38:42Z</time>
      </trkpt>
      <trkpt lat="45.59973" lon="4.41432">
        <ele>597.11596679688</ele>
        <time>2017-03-22T14:39:01Z</time>
      </trkpt>
      <trkpt lat="45.59966" lon="4.4145">
        <ele>603.84521484375</ele>
        <time>2017-03-22T14:39:19Z</time>
      </trkpt>
      <trkpt lat="45.5996" lon="4.41464">
        <ele>607.69067382812</ele>
        <time>2017-03-22T14:39:32Z</time>
      </trkpt>
      <trkpt lat="45.59962" lon="4.41478">
        <ele>609.13256835938</ele>
        <time>2017-03-22T14:39:45Z</time>
      </trkpt>
      <trkpt lat="45.59965" lon="4.4149">
        <ele>610.09375</ele>
        <time>2017-03-22T14:40:02Z</time>
      </trkpt>
      <trkpt lat="45.5997" lon="4.41506">
        <ele>612.0166015625</ele>
        <time>2017-03-22T14:40:18Z</time>
      </trkpt>
      <trkpt lat="45.59971" lon="4.41525">
        <ele>612.4970703125</ele>
        <time>2017-03-22T14:40:34Z</time>
      </trkpt>
      <trkpt lat="45.59971" lon="4.41531">
        <ele>614.41967773438</ele>
        <time>2017-03-22T14:40:59Z</time>
      </trkpt>
      <trkpt lat="45.59971" lon="4.4154">
        <ele>614.41967773438</ele>
        <time>2017-03-22T14:41:32Z</time>
      </trkpt>
      <trkpt lat="45.59971" lon="4.41554">
        <ele>614.41967773438</ele>
        <time>2017-03-22T14:41:46Z</time>
      </trkpt>
      <trkpt lat="45.59975" lon="4.41572">
        <ele>614.900390625</ele>
        <time>2017-03-22T14:42:01Z</time>
      </trkpt>
      <trkpt lat="45.59978" lon="4.41592">
        <ele>613.93896484375</ele>
        <time>2017-03-22T14:42:20Z</time>
      </trkpt>
      <trkpt lat="45.59972" lon="4.4161">
        <ele>609.61328125</ele>
        <time>2017-03-22T14:42:33Z</time>
      </trkpt>
      <trkpt lat="45.59957" lon="4.41624">
        <ele>605.28735351562</ele>
        <time>2017-03-22T14:42:52Z</time>
      </trkpt>
      <trkpt lat="45.59945" lon="4.4163">
        <ele>607.2099609375</ele>
        <time>2017-03-22T14:43:04Z</time>
      </trkpt>
      <trkpt lat="45.59929" lon="4.41631">
        <ele>608.65185546875</ele>
        <time>2017-03-22T14:43:20Z</time>
      </trkpt>
      <trkpt lat="45.59915" lon="4.41631">
        <ele>609.61328125</ele>
        <time>2017-03-22T14:43:35Z</time>
      </trkpt>
      <trkpt lat="45.59897" lon="4.41632">
        <ele>610.57446289062</ele>
        <time>2017-03-22T14:43:56Z</time>
      </trkpt>
      <trkpt lat="45.5987" lon="4.41623">
        <ele>610.09375</ele>
        <time>2017-03-22T14:44:18Z</time>
      </trkpt>
      <trkpt lat="45.59856" lon="4.41622">
        <ele>608.17138671875</ele>
        <time>2017-03-22T14:44:36Z</time>
      </trkpt>
      <trkpt lat="45.59842" lon="4.41622">
        <ele>604.326171875</ele>
        <time>2017-03-22T14:44:50Z</time>
      </trkpt>
      <trkpt lat="45.59829" lon="4.41619">
        <ele>602.40307617188</ele>
        <time>2017-03-22T14:45:06Z</time>
      </trkpt>
      <trkpt lat="45.59818" lon="4.41622">
        <ele>601.44189453125</ele>
        <time>2017-03-22T14:45:21Z</time>
      </trkpt>
      <trkpt lat="45.59805" lon="4.41631">
        <ele>601.92260742188</ele>
        <time>2017-03-22T14:45:38Z</time>
      </trkpt>
      <trkpt lat="45.59803" lon="4.41629">
        <ele>600.48071289062</ele>
        <time>2017-03-22T14:45:54Z</time>
      </trkpt>
      <trkpt lat="45.59802" lon="4.41626">
        <ele>599.03857421875</ele>
        <time>2017-03-22T14:45:57Z</time>
      </trkpt>
      <trkpt lat="45.59789" lon="4.41623">
        <ele>599.51928710938</ele>
        <time>2017-03-22T14:46:10Z</time>
      </trkpt>
      <trkpt lat="45.59778" lon="4.41633">
        <ele>596.63549804688</ele>
        <time>2017-03-22T14:46:22Z</time>
      </trkpt>
      <trkpt lat="45.59776" lon="4.41636">
        <ele>593.27075195312</ele>
        <time>2017-03-22T14:46:27Z</time>
      </trkpt>
      <trkpt lat="45.59775" lon="4.41659">
        <ele>587.50268554688</ele>
        <time>2017-03-22T14:46:43Z</time>
      </trkpt>
      <trkpt lat="45.59776" lon="4.41673">
        <ele>585.099609375</ele>
        <time>2017-03-22T14:46:56Z</time>
      </trkpt>
      <trkpt lat="45.59775" lon="4.41698">
        <ele>587.02197265625</ele>
        <time>2017-03-22T14:47:11Z</time>
      </trkpt>
      <trkpt lat="45.59776" lon="4.41703">
        <ele>587.50268554688</ele>
        <time>2017-03-22T14:47:14Z</time>
      </trkpt>
      <trkpt lat="45.59776" lon="4.41708">
        <ele>587.9833984375</ele>
        <time>2017-03-22T14:47:17Z</time>
      </trkpt>
      <trkpt lat="45.59779" lon="4.41718">
        <ele>589.42553710938</ele>
        <time>2017-03-22T14:47:23Z</time>
      </trkpt>
      <trkpt lat="45.59778" lon="4.41736">
        <ele>589.90625</ele>
        <time>2017-03-22T14:47:36Z</time>
      </trkpt>
      <trkpt lat="45.59776" lon="4.41742">
        <ele>591.34814453125</ele>
        <time>2017-03-22T14:47:40Z</time>
      </trkpt>
      <trkpt lat="45.59761" lon="4.4176">
        <ele>592.3095703125</ele>
        <time>2017-03-22T14:47:57Z</time>
      </trkpt>
      <trkpt lat="45.59749" lon="4.41769">
        <ele>588.46435546875</ele>
        <time>2017-03-22T14:48:12Z</time>
      </trkpt>
      <trkpt lat="45.59743" lon="4.41776">
        <ele>589.42553710938</ele>
        <time>2017-03-22T14:48:19Z</time>
      </trkpt>
      <trkpt lat="45.59739" lon="4.41779">
        <ele>589.90625</ele>
        <time>2017-03-22T14:48:23Z</time>
      </trkpt>
      <trkpt lat="45.59725" lon="4.41792">
        <ele>588.94506835938</ele>
        <time>2017-03-22T14:48:39Z</time>
      </trkpt>
      <trkpt lat="45.59712" lon="4.41797">
        <ele>588.46435546875</ele>
        <time>2017-03-22T14:48:50Z</time>
      </trkpt>
      <trkpt lat="45.59696" lon="4.41812">
        <ele>586.54150390625</ele>
        <time>2017-03-22T14:49:04Z</time>
      </trkpt>
      <trkpt lat="45.59682" lon="4.41816">
        <ele>585.099609375</ele>
        <time>2017-03-22T14:49:17Z</time>
      </trkpt>
      <trkpt lat="45.59676" lon="4.41817">
        <ele>584.13818359375</ele>
        <time>2017-03-22T14:49:22Z</time>
      </trkpt>
      <trkpt lat="45.59674" lon="4.41818">
        <ele>584.13818359375</ele>
        <time>2017-03-22T14:49:25Z</time>
      </trkpt>
      <trkpt lat="45.59654" lon="4.41827">
        <ele>589.42553710938</ele>
        <time>2017-03-22T14:49:42Z</time>
      </trkpt>
      <trkpt lat="45.59638" lon="4.41836">
        <ele>588.94506835938</ele>
        <time>2017-03-22T14:49:57Z</time>
      </trkpt>
      <trkpt lat="45.59635" lon="4.41844">
        <ele>587.9833984375</ele>
        <time>2017-03-22T14:50:05Z</time>
      </trkpt>
      <trkpt lat="45.59626" lon="4.41863">
        <ele>583.1767578125</ele>
        <time>2017-03-22T14:50:21Z</time>
      </trkpt>
      <trkpt lat="45.59619" lon="4.41874">
        <ele>582.6962890625</ele>
        <time>2017-03-22T14:50:29Z</time>
      </trkpt>
      <trkpt lat="45.59608" lon="4.41876">
        <ele>585.099609375</ele>
        <time>2017-03-22T14:50:39Z</time>
      </trkpt>
      <trkpt lat="45.59597" lon="4.41867">
        <ele>590.38696289062</ele>
        <time>2017-03-22T14:50:53Z</time>
      </trkpt>
      <trkpt lat="45.59585" lon="4.41852">
        <ele>595.193359375</ele>
        <time>2017-03-22T14:51:10Z</time>
      </trkpt>
      <trkpt lat="45.59572" lon="4.41845">
        <ele>599.51928710938</ele>
        <time>2017-03-22T14:51:23Z</time>
      </trkpt>
      <trkpt lat="45.59571" lon="4.41844">
        <ele>600</ele>
        <time>2017-03-22T14:51:24Z</time>
      </trkpt>
      <trkpt lat="45.59557" lon="4.41833">
        <ele>603.36450195312</ele>
        <time>2017-03-22T14:51:38Z</time>
      </trkpt>
      <trkpt lat="45.59543" lon="4.41821">
        <ele>603.36450195312</ele>
        <time>2017-03-22T14:51:52Z</time>
      </trkpt>
      <trkpt lat="45.59531" lon="4.41804">
        <ele>596.63549804688</ele>
        <time>2017-03-22T14:52:08Z</time>
      </trkpt>
      <trkpt lat="45.59519" lon="4.41793">
        <ele>597.11596679688</ele>
        <time>2017-03-22T14:52:21Z</time>
      </trkpt>
      <trkpt lat="45.59504" lon="4.41779">
        <ele>596.63549804688</ele>
        <time>2017-03-22T14:52:36Z</time>
      </trkpt>
      <trkpt lat="45.59488" lon="4.41766">
        <ele>594.71264648438</ele>
        <time>2017-03-22T14:52:51Z</time>
      </trkpt>
      <trkpt lat="45.59477" lon="4.41762">
        <ele>592.3095703125</ele>
        <time>2017-03-22T14:53:04Z</time>
      </trkpt>
      <trkpt lat="45.59468" lon="4.41768">
        <ele>593.27075195312</ele>
        <time>2017-03-22T14:53:12Z</time>
      </trkpt>
      <trkpt lat="45.59457" lon="4.41788">
        <ele>594.23217773438</ele>
        <time>2017-03-22T14:53:27Z</time>
      </trkpt>
      <trkpt lat="45.5945" lon="4.41799">
        <ele>596.15478515625</ele>
        <time>2017-03-22T14:53:35Z</time>
      </trkpt>
      <trkpt lat="45.59454" lon="4.4182">
        <ele>596.63549804688</ele>
        <time>2017-03-22T14:53:51Z</time>
      </trkpt>
      <trkpt lat="45.59459" lon="4.41842">
        <ele>596.63549804688</ele>
        <time>2017-03-22T14:54:06Z</time>
      </trkpt>
      <trkpt lat="45.59464" lon="4.41872">
        <ele>595.193359375</ele>
        <time>2017-03-22T14:54:23Z</time>
      </trkpt>
      <trkpt lat="45.59466" lon="4.41899">
        <ele>597.11596679688</ele>
        <time>2017-03-22T14:54:38Z</time>
      </trkpt>
      <trkpt lat="45.59466" lon="4.41919">
        <ele>595.67407226562</ele>
        <time>2017-03-22T14:54:51Z</time>
      </trkpt>
      <trkpt lat="45.59466" lon="4.41934">
        <ele>595.193359375</ele>
        <time>2017-03-22T14:54:59Z</time>
      </trkpt>
      <trkpt lat="45.59467" lon="4.41961">
        <ele>597.11596679688</ele>
        <time>2017-03-22T14:55:15Z</time>
      </trkpt>
      <trkpt lat="45.59462" lon="4.41984">
        <ele>596.15478515625</ele>
        <time>2017-03-22T14:55:30Z</time>
      </trkpt>
      <trkpt lat="45.59457" lon="4.41994">
        <ele>594.23217773438</ele>
        <time>2017-03-22T14:55:38Z</time>
      </trkpt>
      <trkpt lat="45.59446" lon="4.42008">
        <ele>591.82885742188</ele>
        <time>2017-03-22T14:55:54Z</time>
      </trkpt>
      <trkpt lat="45.5944" lon="4.42023">
        <ele>588.46435546875</ele>
        <time>2017-03-22T14:56:07Z</time>
      </trkpt>
      <trkpt lat="45.59428" lon="4.42035">
        <ele>587.50268554688</ele>
        <time>2017-03-22T14:56:20Z</time>
      </trkpt>
      <trkpt lat="45.59423" lon="4.42047">
        <ele>586.06079101562</ele>
        <time>2017-03-22T14:56:27Z</time>
      </trkpt>
      <trkpt lat="45.5942" lon="4.42052">
        <ele>586.06079101562</ele>
        <time>2017-03-22T14:56:30Z</time>
      </trkpt>
      <trkpt lat="45.59408" lon="4.42064">
        <ele>584.13818359375</ele>
        <time>2017-03-22T14:56:43Z</time>
      </trkpt>
      <trkpt lat="45.59402" lon="4.42077">
        <ele>582.21557617188</ele>
        <time>2017-03-22T14:57:00Z</time>
      </trkpt>
      <trkpt lat="45.59398" lon="4.42097">
        <ele>575.96704101562</ele>
        <time>2017-03-22T14:57:18Z</time>
      </trkpt>
      <trkpt lat="45.59396" lon="4.42128">
        <ele>571.64086914062</ele>
        <time>2017-03-22T14:57:37Z</time>
      </trkpt>
      <trkpt lat="45.59396" lon="4.42153">
        <ele>571.16040039062</ele>
        <time>2017-03-22T14:57:56Z</time>
      </trkpt>
      <trkpt lat="45.59394" lon="4.42182">
        <ele>573.08325195312</ele>
        <time>2017-03-22T14:58:16Z</time>
      </trkpt>
      <trkpt lat="45.59393" lon="4.42206">
        <ele>575.005859375</ele>
        <time>2017-03-22T14:58:31Z</time>
      </trkpt>
      <trkpt lat="45.59394" lon="4.42233">
        <ele>575.96704101562</ele>
        <time>2017-03-22T14:58:49Z</time>
      </trkpt>
      <trkpt lat="45.59391" lon="4.42254">
        <ele>576.92846679688</ele>
        <time>2017-03-22T14:59:02Z</time>
      </trkpt>
      <trkpt lat="45.59385" lon="4.42291">
        <ele>575.96704101562</ele>
        <time>2017-03-22T14:59:21Z</time>
      </trkpt>
      <trkpt lat="45.5938" lon="4.4232">
        <ele>575.005859375</ele>
        <time>2017-03-22T14:59:43Z</time>
      </trkpt>
      <trkpt lat="45.59379" lon="4.42348">
        <ele>573.08325195312</ele>
        <time>2017-03-22T15:00:03Z</time>
      </trkpt>
      <trkpt lat="45.59379" lon="4.42373">
        <ele>568.75708007812</ele>
        <time>2017-03-22T15:00:23Z</time>
      </trkpt>
      <trkpt lat="45.5938" lon="4.42375">
        <ele>568.2763671875</ele>
        <time>2017-03-22T15:00:24Z</time>
      </trkpt>
      <trkpt lat="45.59378" lon="4.42396">
        <ele>564.43115234375</ele>
        <time>2017-03-22T15:00:39Z</time>
      </trkpt>
      <trkpt lat="45.59378" lon="4.42402">
        <ele>564.43115234375</ele>
        <time>2017-03-22T15:00:43Z</time>
      </trkpt>
      <trkpt lat="45.59379" lon="4.42408">
        <ele>563.95043945312</ele>
        <time>2017-03-22T15:00:48Z</time>
      </trkpt>
      <trkpt lat="45.59378" lon="4.42425">
        <ele>560.5859375</ele>
        <time>2017-03-22T15:01:01Z</time>
      </trkpt>
      <trkpt lat="45.59378" lon="4.42446">
        <ele>558.18286132812</ele>
        <time>2017-03-22T15:01:18Z</time>
      </trkpt>
      <trkpt lat="45.59379" lon="4.42473">
        <ele>554.81787109375</ele>
        <time>2017-03-22T15:01:38Z</time>
      </trkpt>
      <trkpt lat="45.59374" lon="4.42497">
        <ele>553.3759765625</ele>
        <time>2017-03-22T15:01:59Z</time>
      </trkpt>
      <trkpt lat="45.59362" lon="4.4253">
        <ele>550.97265625</ele>
        <time>2017-03-22T15:02:21Z</time>
      </trkpt>
      <trkpt lat="45.59365" lon="4.42542">
        <ele>551.45336914062</ele>
        <time>2017-03-22T15:02:39Z</time>
      </trkpt>
      <trkpt lat="45.59372" lon="4.42555">
        <ele>548.0888671875</ele>
        <time>2017-03-22T15:03:34Z</time>
      </trkpt>
      <trkpt lat="45.59381" lon="4.42571">
        <ele>544.24365234375</ele>
        <time>2017-03-22T15:03:55Z</time>
      </trkpt>
      <trkpt lat="45.59394" lon="4.4259">
        <ele>545.685546875</ele>
        <time>2017-03-22T15:04:12Z</time>
      </trkpt>
      <trkpt lat="45.59404" lon="4.42594">
        <ele>548.5693359375</ele>
        <time>2017-03-22T15:04:27Z</time>
      </trkpt>
      <trkpt lat="45.59415" lon="4.42586">
        <ele>549.05004882812</ele>
        <time>2017-03-22T15:04:46Z</time>
      </trkpt>
      <trkpt lat="45.59447" lon="4.42574">
        <ele>548.0888671875</ele>
        <time>2017-03-22T15:05:07Z</time>
      </trkpt>
      <trkpt lat="45.5946" lon="4.42572">
        <ele>545.20483398438</ele>
        <time>2017-03-22T15:05:22Z</time>
      </trkpt>
      <trkpt lat="45.5947" lon="4.42575">
        <ele>543.28210449219</ele>
        <time>2017-03-22T15:05:33Z</time>
      </trkpt>
      <trkpt lat="45.59489" lon="4.42554">
        <ele>542.32092285156</ele>
        <time>2017-03-22T15:05:44Z</time>
      </trkpt>
      <trkpt lat="45.59501" lon="4.42551">
        <ele>540.87890625</ele>
        <time>2017-03-22T15:06:02Z</time>
      </trkpt>
      <trkpt lat="45.59509" lon="4.42553">
        <ele>542.32092285156</ele>
        <time>2017-03-22T15:06:22Z</time>
      </trkpt>
      <trkpt lat="45.59528" lon="4.42554">
        <ele>543.76281738281</ele>
        <time>2017-03-22T15:06:36Z</time>
      </trkpt>
      <trkpt lat="45.59543" lon="4.42557">
        <ele>549.05004882812</ele>
        <time>2017-03-22T15:06:50Z</time>
      </trkpt>
      <trkpt lat="45.59557" lon="4.42552">
        <ele>552.41455078125</ele>
        <time>2017-03-22T15:07:10Z</time>
      </trkpt>
      <trkpt lat="45.59576" lon="4.42536">
        <ele>552.89526367188</ele>
        <time>2017-03-22T15:07:31Z</time>
      </trkpt>
      <trkpt lat="45.59578" lon="4.42535">
        <ele>552.89526367188</ele>
        <time>2017-03-22T15:07:34Z</time>
      </trkpt>
      <trkpt lat="45.59583" lon="4.42531">
        <ele>552.89526367188</ele>
        <time>2017-03-22T15:07:43Z</time>
      </trkpt>
      <trkpt lat="45.59606" lon="4.42527">
        <ele>559.14404296875</ele>
        <time>2017-03-22T15:08:01Z</time>
      </trkpt>
      <trkpt lat="45.59607" lon="4.42519">
        <ele>561.06665039062</ele>
        <time>2017-03-22T15:08:23Z</time>
      </trkpt>
      <trkpt lat="45.5961" lon="4.42515">
        <ele>561.06665039062</ele>
        <time>2017-03-22T15:08:27Z</time>
      </trkpt>
      <trkpt lat="45.59618" lon="4.42507">
        <ele>561.06665039062</ele>
        <time>2017-03-22T15:08:34Z</time>
      </trkpt>
      <trkpt lat="45.59625" lon="4.4249">
        <ele>561.06665039062</ele>
        <time>2017-03-22T15:08:48Z</time>
      </trkpt>
      <trkpt lat="45.59644" lon="4.42468">
        <ele>559.62475585938</ele>
        <time>2017-03-22T15:09:10Z</time>
      </trkpt>
      <trkpt lat="45.59651" lon="4.42482">
        <ele>561.06665039062</ele>
        <time>2017-03-22T15:09:30Z</time>
      </trkpt>
      <trkpt lat="45.59649" lon="4.42485">
        <ele>564.43115234375</ele>
        <time>2017-03-22T15:11:26Z</time>
      </trkpt>
      <trkpt lat="45.59646" lon="4.42514">
        <ele>571.16040039062</ele>
        <time>2017-03-22T15:11:48Z</time>
      </trkpt>
      <trkpt lat="45.59645" lon="4.42525">
        <ele>573.08325195312</ele>
        <time>2017-03-22T15:12:03Z</time>
      </trkpt>
      <trkpt lat="45.59636" lon="4.4254">
        <ele>575.486328125</ele>
        <time>2017-03-22T15:12:21Z</time>
      </trkpt>
      <trkpt lat="45.5962" lon="4.42565">
        <ele>577.4091796875</ele>
        <time>2017-03-22T15:12:44Z</time>
      </trkpt>
      <trkpt lat="45.59604" lon="4.42585">
        <ele>580.29296875</ele>
        <time>2017-03-22T15:13:03Z</time>
      </trkpt>
      <trkpt lat="45.59588" lon="4.42607">
        <ele>582.21557617188</ele>
        <time>2017-03-22T15:13:23Z</time>
      </trkpt>
      <trkpt lat="45.59575" lon="4.42635">
        <ele>585.099609375</ele>
        <time>2017-03-22T15:13:47Z</time>
      </trkpt>
      <trkpt lat="45.59565" lon="4.42649">
        <ele>589.90625</ele>
        <time>2017-03-22T15:14:04Z</time>
      </trkpt>
      <trkpt lat="45.5955" lon="4.42668">
        <ele>591.34814453125</ele>
        <time>2017-03-22T15:14:26Z</time>
      </trkpt>
      <trkpt lat="45.59542" lon="4.42692">
        <ele>593.75146484375</ele>
        <time>2017-03-22T15:14:40Z</time>
      </trkpt>
      <trkpt lat="45.59541" lon="4.42694">
        <ele>593.75146484375</ele>
        <time>2017-03-22T15:14:42Z</time>
      </trkpt>
      <trkpt lat="45.59536" lon="4.42723">
        <ele>591.34814453125</ele>
        <time>2017-03-22T15:14:58Z</time>
      </trkpt>
      <trkpt lat="45.59529" lon="4.42748">
        <ele>591.34814453125</ele>
        <time>2017-03-22T15:15:14Z</time>
      </trkpt>
      <trkpt lat="45.59525" lon="4.42758">
        <ele>591.82885742188</ele>
        <time>2017-03-22T15:15:19Z</time>
      </trkpt>
      <trkpt lat="45.59531" lon="4.42777">
        <ele>590.38696289062</ele>
        <time>2017-03-22T15:15:34Z</time>
      </trkpt>
      <trkpt lat="45.59533" lon="4.42787">
        <ele>588.46435546875</ele>
        <time>2017-03-22T15:15:41Z</time>
      </trkpt>
      <trkpt lat="45.59534" lon="4.42792">
        <ele>589.90625</ele>
        <time>2017-03-22T15:15:44Z</time>
      </trkpt>
      <trkpt lat="45.59533" lon="4.42806">
        <ele>591.82885742188</ele>
        <time>2017-03-22T15:15:54Z</time>
      </trkpt>
      <trkpt lat="45.59523" lon="4.42822">
        <ele>592.3095703125</ele>
        <time>2017-03-22T15:16:07Z</time>
      </trkpt>
      <trkpt lat="45.59518" lon="4.4283">
        <ele>593.27075195312</ele>
        <time>2017-03-22T15:16:16Z</time>
      </trkpt>
      <trkpt lat="45.59515" lon="4.42832">
        <ele>593.75146484375</ele>
        <time>2017-03-22T15:16:19Z</time>
      </trkpt>
      <trkpt lat="45.59511" lon="4.42832">
        <ele>594.71264648438</ele>
        <time>2017-03-22T15:16:23Z</time>
      </trkpt>
      <trkpt lat="45.59507" lon="4.42832">
        <ele>594.23217773438</ele>
        <time>2017-03-22T15:16:28Z</time>
      </trkpt>
      <trkpt lat="45.59504" lon="4.42834">
        <ele>593.75146484375</ele>
        <time>2017-03-22T15:16:31Z</time>
      </trkpt>
      <trkpt lat="45.59492" lon="4.42833">
        <ele>594.71264648438</ele>
        <time>2017-03-22T15:16:44Z</time>
      </trkpt>
      <trkpt lat="45.59479" lon="4.42843">
        <ele>597.5966796875</ele>
        <time>2017-03-22T15:16:57Z</time>
      </trkpt>
      <trkpt lat="45.59469" lon="4.42852">
        <ele>600</ele>
        <time>2017-03-22T15:17:12Z</time>
      </trkpt>
      <trkpt lat="45.59453" lon="4.42863">
        <ele>604.326171875</ele>
        <time>2017-03-22T15:17:32Z</time>
      </trkpt>
      <trkpt lat="45.59438" lon="4.4287">
        <ele>609.61328125</ele>
        <time>2017-03-22T15:17:56Z</time>
      </trkpt>
      <trkpt lat="45.59423" lon="4.42884">
        <ele>612.0166015625</ele>
        <time>2017-03-22T15:18:20Z</time>
      </trkpt>
      <trkpt lat="45.59402" lon="4.42897">
        <ele>613.45849609375</ele>
        <time>2017-03-22T15:18:44Z</time>
      </trkpt>
      <trkpt lat="45.59397" lon="4.42902">
        <ele>613.45849609375</ele>
        <time>2017-03-22T15:19:05Z</time>
      </trkpt>
      <trkpt lat="45.5939" lon="4.42893">
        <ele>610.57446289062</ele>
        <time>2017-03-22T15:20:25Z</time>
      </trkpt>
      <trkpt lat="45.59383" lon="4.42883">
        <ele>610.57446289062</ele>
        <time>2017-03-22T15:20:38Z</time>
      </trkpt>
      <trkpt lat="45.59369" lon="4.42865">
        <ele>609.61328125</ele>
        <time>2017-03-22T15:20:50Z</time>
      </trkpt>
      <trkpt lat="45.59352" lon="4.42852">
        <ele>606.24853515625</ele>
        <time>2017-03-22T15:21:06Z</time>
      </trkpt>
      <trkpt lat="45.59341" lon="4.42842">
        <ele>603.36450195312</ele>
        <time>2017-03-22T15:21:20Z</time>
      </trkpt>
      <trkpt lat="45.59327" lon="4.42837">
        <ele>602.8837890625</ele>
        <time>2017-03-22T15:21:36Z</time>
      </trkpt>
      <trkpt lat="45.59317" lon="4.42834">
        <ele>602.40307617188</ele>
        <time>2017-03-22T15:21:53Z</time>
      </trkpt>
      <trkpt lat="45.59299" lon="4.42832">
        <ele>601.44189453125</ele>
        <time>2017-03-22T15:22:08Z</time>
      </trkpt>
      <trkpt lat="45.59296" lon="4.42833">
        <ele>601.44189453125</ele>
        <time>2017-03-22T15:22:11Z</time>
      </trkpt>
      <trkpt lat="45.59283" lon="4.42835">
        <ele>600.96118164062</ele>
        <time>2017-03-22T15:22:24Z</time>
      </trkpt>
      <trkpt lat="45.59269" lon="4.42838">
        <ele>603.84521484375</ele>
        <time>2017-03-22T15:22:37Z</time>
      </trkpt>
      <trkpt lat="45.59249" lon="4.42848">
        <ele>606.24853515625</ele>
        <time>2017-03-22T15:22:55Z</time>
      </trkpt>
      <trkpt lat="45.59234" lon="4.42861">
        <ele>606.72924804688</ele>
        <time>2017-03-22T15:23:08Z</time>
      </trkpt>
      <trkpt lat="45.59232" lon="4.42865">
        <ele>607.2099609375</ele>
        <time>2017-03-22T15:23:11Z</time>
      </trkpt>
      <trkpt lat="45.59222" lon="4.42875">
        <ele>607.69067382812</ele>
        <time>2017-03-22T15:23:25Z</time>
      </trkpt>
      <trkpt lat="45.59213" lon="4.42885">
        <ele>608.17138671875</ele>
        <time>2017-03-22T15:23:37Z</time>
      </trkpt>
      <trkpt lat="45.59201" lon="4.42894">
        <ele>611.53588867188</ele>
        <time>2017-03-22T15:23:55Z</time>
      </trkpt>
      <trkpt lat="45.59189" lon="4.42903">
        <ele>613.93896484375</ele>
        <time>2017-03-22T15:24:10Z</time>
      </trkpt>
      <trkpt lat="45.59175" lon="4.4292">
        <ele>617.7841796875</ele>
        <time>2017-03-22T15:24:26Z</time>
      </trkpt>
      <trkpt lat="45.59161" lon="4.42936">
        <ele>618.74560546875</ele>
        <time>2017-03-22T15:24:44Z</time>
      </trkpt>
      <trkpt lat="45.59136" lon="4.4296">
        <ele>621.62963867188</ele>
        <time>2017-03-22T15:25:09Z</time>
      </trkpt>
      <trkpt lat="45.59132" lon="4.42962">
        <ele>620.18774414062</ele>
        <time>2017-03-22T15:25:15Z</time>
      </trkpt>
      <trkpt lat="45.59119" lon="4.42981">
        <ele>615.86181640625</ele>
        <time>2017-03-22T15:25:31Z</time>
      </trkpt>
      <trkpt lat="45.59106" lon="4.42999">
        <ele>609.13256835938</ele>
        <time>2017-03-22T15:25:47Z</time>
      </trkpt>
      <trkpt lat="45.59093" lon="4.43019">
        <ele>602.40307617188</ele>
        <time>2017-03-22T15:26:05Z</time>
      </trkpt>
      <trkpt lat="45.59076" lon="4.43042">
        <ele>595.67407226562</ele>
        <time>2017-03-22T15:26:28Z</time>
      </trkpt>
      <trkpt lat="45.59061" lon="4.4306">
        <ele>591.34814453125</ele>
        <time>2017-03-22T15:26:53Z</time>
      </trkpt>
      <trkpt lat="45.59037" lon="4.4308">
        <ele>591.34814453125</ele>
        <time>2017-03-22T15:27:27Z</time>
      </trkpt>
      <trkpt lat="45.59024" lon="4.43099">
        <ele>591.82885742188</ele>
        <time>2017-03-22T15:28:00Z</time>
      </trkpt>
      <trkpt lat="45.59012" lon="4.43109">
        <ele>592.79028320312</ele>
        <time>2017-03-22T15:28:20Z</time>
      </trkpt>
      <trkpt lat="45.59004" lon="4.43118">
        <ele>593.75146484375</ele>
        <time>2017-03-22T15:28:35Z</time>
      </trkpt>
      <trkpt lat="45.5898" lon="4.43146">
        <ele>607.2099609375</ele>
        <time>2017-03-22T15:29:13Z</time>
      </trkpt>
      <trkpt lat="45.58969" lon="4.4316">
        <ele>614.41967773438</ele>
        <time>2017-03-22T15:29:26Z</time>
      </trkpt>
      <trkpt lat="45.58958" lon="4.43174">
        <ele>618.74560546875</ele>
        <time>2017-03-22T15:29:39Z</time>
      </trkpt>
      <trkpt lat="45.58947" lon="4.43189">
        <ele>624.99438476562</ele>
        <time>2017-03-22T15:29:54Z</time>
      </trkpt>
      <trkpt lat="45.58936" lon="4.4321">
        <ele>629.80078125</ele>
        <time>2017-03-22T15:30:11Z</time>
      </trkpt>
      <trkpt lat="45.58923" lon="4.43231">
        <ele>632.2041015625</ele>
        <time>2017-03-22T15:30:25Z</time>
      </trkpt>
      <trkpt lat="45.58908" lon="4.43246">
        <ele>637.49145507812</ele>
        <time>2017-03-22T15:30:39Z</time>
      </trkpt>
      <trkpt lat="45.58897" lon="4.43258">
        <ele>637.49145507812</ele>
        <time>2017-03-22T15:30:52Z</time>
      </trkpt>
      <trkpt lat="45.5889" lon="4.43266">
        <ele>639.89477539062</ele>
        <time>2017-03-22T15:31:01Z</time>
      </trkpt>
      <trkpt lat="45.58883" lon="4.43273">
        <ele>640.85595703125</ele>
        <time>2017-03-22T15:31:09Z</time>
      </trkpt>
      <trkpt lat="45.58875" lon="4.43285">
        <ele>640.85595703125</ele>
        <time>2017-03-22T15:31:19Z</time>
      </trkpt>
      <trkpt lat="45.58874" lon="4.43288">
        <ele>640.85595703125</ele>
        <time>2017-03-22T15:31:22Z</time>
      </trkpt>
      <trkpt lat="45.58872" lon="4.43303">
        <ele>641.33666992188</ele>
        <time>2017-03-22T15:31:36Z</time>
      </trkpt>
      <trkpt lat="45.58875" lon="4.4332">
        <ele>638.45288085938</ele>
        <time>2017-03-22T15:31:50Z</time>
      </trkpt>
      <trkpt lat="45.58874" lon="4.43332">
        <ele>638.45288085938</ele>
        <time>2017-03-22T15:32:00Z</time>
      </trkpt>
      <trkpt lat="45.58876" lon="4.43339">
        <ele>638.93359375</ele>
        <time>2017-03-22T15:32:06Z</time>
      </trkpt>
      <trkpt lat="45.58878" lon="4.43366">
        <ele>643.73999023438</ele>
        <time>2017-03-22T15:32:22Z</time>
      </trkpt>
      <trkpt lat="45.58876" lon="4.43385">
        <ele>642.29809570312</ele>
        <time>2017-03-22T15:32:37Z</time>
      </trkpt>
      <trkpt lat="45.58878" lon="4.43403">
        <ele>641.33666992188</ele>
        <time>2017-03-22T15:32:53Z</time>
      </trkpt>
      <trkpt lat="45.58877" lon="4.43416">
        <ele>642.77880859375</ele>
        <time>2017-03-22T15:33:03Z</time>
      </trkpt>
      <trkpt lat="45.58874" lon="4.43426">
        <ele>644.701171875</ele>
        <time>2017-03-22T15:33:11Z</time>
      </trkpt>
      <trkpt lat="45.58861" lon="4.43444">
        <ele>646.14331054688</ele>
        <time>2017-03-22T15:33:28Z</time>
      </trkpt>
      <trkpt lat="45.58853" lon="4.43455">
        <ele>649.5078125</ele>
        <time>2017-03-22T15:33:42Z</time>
      </trkpt>
      <trkpt lat="45.58846" lon="4.43468">
        <ele>652.87255859375</ele>
        <time>2017-03-22T15:33:57Z</time>
      </trkpt>
      <trkpt lat="45.58841" lon="4.43491">
        <ele>651.43041992188</ele>
        <time>2017-03-22T15:34:12Z</time>
      </trkpt>
      <trkpt lat="45.58835" lon="4.43502">
        <ele>650.46923828125</ele>
        <time>2017-03-22T15:34:26Z</time>
      </trkpt>
      <trkpt lat="45.58832" lon="4.43504">
        <ele>652.87255859375</ele>
        <time>2017-03-22T15:34:42Z</time>
      </trkpt>
      <trkpt lat="45.58827" lon="4.43502">
        <ele>653.833984375</ele>
        <time>2017-03-22T15:35:21Z</time>
      </trkpt>
      <trkpt lat="45.58819" lon="4.43495">
        <ele>654.31469726562</ele>
        <time>2017-03-22T15:35:30Z</time>
      </trkpt>
      <trkpt lat="45.58804" lon="4.43475">
        <ele>653.833984375</ele>
        <time>2017-03-22T15:35:49Z</time>
      </trkpt>
      <trkpt lat="45.58793" lon="4.43456">
        <ele>650.94970703125</ele>
        <time>2017-03-22T15:36:06Z</time>
      </trkpt>
      <trkpt lat="45.58791" lon="4.43453">
        <ele>649.98852539062</ele>
        <time>2017-03-22T15:36:08Z</time>
      </trkpt>
      <trkpt lat="45.58782" lon="4.43438">
        <ele>648.06591796875</ele>
        <time>2017-03-22T15:36:20Z</time>
      </trkpt>
      <trkpt lat="45.5877" lon="4.43422">
        <ele>645.18188476562</ele>
        <time>2017-03-22T15:36:34Z</time>
      </trkpt>
      <trkpt lat="45.58765" lon="4.43414">
        <ele>643.25927734375</ele>
        <time>2017-03-22T15:36:41Z</time>
      </trkpt>
      <trkpt lat="45.58754" lon="4.43394">
        <ele>641.8173828125</ele>
        <time>2017-03-22T15:36:58Z</time>
      </trkpt>
      <trkpt lat="45.58746" lon="4.43382">
        <ele>639.89477539062</ele>
        <time>2017-03-22T15:37:12Z</time>
      </trkpt>
      <trkpt lat="45.58735" lon="4.43368">
        <ele>636.04956054688</ele>
        <time>2017-03-22T15:37:24Z</time>
      </trkpt>
      <trkpt lat="45.58734" lon="4.43367">
        <ele>636.04956054688</ele>
        <time>2017-03-22T15:37:25Z</time>
      </trkpt>
      <trkpt lat="45.58718" lon="4.43348">
        <ele>631.72338867188</ele>
        <time>2017-03-22T15:37:43Z</time>
      </trkpt>
      <trkpt lat="45.58715" lon="4.43343">
        <ele>630.76220703125</ele>
        <time>2017-03-22T15:37:46Z</time>
      </trkpt>
      <trkpt lat="45.58703" lon="4.43325">
        <ele>625.47485351562</ele>
        <time>2017-03-22T15:38:02Z</time>
      </trkpt>
      <trkpt lat="45.58688" lon="4.43306">
        <ele>625.95556640625</ele>
        <time>2017-03-22T15:38:17Z</time>
      </trkpt>
      <trkpt lat="45.58673" lon="4.43296">
        <ele>623.55249023438</ele>
        <time>2017-03-22T15:38:32Z</time>
      </trkpt>
      <trkpt lat="45.58663" lon="4.43292">
        <ele>620.66845703125</ele>
        <time>2017-03-22T15:38:40Z</time>
      </trkpt>
      <trkpt lat="45.58649" lon="4.43281">
        <ele>615.38110351562</ele>
        <time>2017-03-22T15:38:56Z</time>
      </trkpt>
      <trkpt lat="45.58639" lon="4.43267">
        <ele>612.0166015625</ele>
        <time>2017-03-22T15:39:10Z</time>
      </trkpt>
      <trkpt lat="45.58637" lon="4.43262">
        <ele>611.53588867188</ele>
        <time>2017-03-22T15:39:13Z</time>
      </trkpt>
      <trkpt lat="45.58625" lon="4.43242">
        <ele>609.61328125</ele>
        <time>2017-03-22T15:39:28Z</time>
      </trkpt>
      <trkpt lat="45.58615" lon="4.43225">
        <ele>608.17138671875</ele>
        <time>2017-03-22T15:39:44Z</time>
      </trkpt>
      <trkpt lat="45.58611" lon="4.43208">
        <ele>605.28735351562</ele>
        <time>2017-03-22T15:39:57Z</time>
      </trkpt>
      <trkpt lat="45.58612" lon="4.43189">
        <ele>603.84521484375</ele>
        <time>2017-03-22T15:40:09Z</time>
      </trkpt>
      <trkpt lat="45.58611" lon="4.43179">
        <ele>602.40307617188</ele>
        <time>2017-03-22T15:40:16Z</time>
      </trkpt>
      <trkpt lat="45.58614" lon="4.43172">
        <ele>601.92260742188</ele>
        <time>2017-03-22T15:40:22Z</time>
      </trkpt>
      <trkpt lat="45.58618" lon="4.43146">
        <ele>600.48071289062</ele>
        <time>2017-03-22T15:40:37Z</time>
      </trkpt>
      <trkpt lat="45.58619" lon="4.43139">
        <ele>598.07739257812</ele>
        <time>2017-03-22T15:40:42Z</time>
      </trkpt>
      <trkpt lat="45.58619" lon="4.43121">
        <ele>597.5966796875</ele>
        <time>2017-03-22T15:40:55Z</time>
      </trkpt>
      <trkpt lat="45.58615" lon="4.43096">
        <ele>596.15478515625</ele>
        <time>2017-03-22T15:41:12Z</time>
      </trkpt>
      <trkpt lat="45.58614" lon="4.43074">
        <ele>592.79028320312</ele>
        <time>2017-03-22T15:41:27Z</time>
      </trkpt>
      <trkpt lat="45.58613" lon="4.43054">
        <ele>591.34814453125</ele>
        <time>2017-03-22T15:41:41Z</time>
      </trkpt>
      <trkpt lat="45.58614" lon="4.43049">
        <ele>590.38696289062</ele>
        <time>2017-03-22T15:41:44Z</time>
      </trkpt>
      <trkpt lat="45.58606" lon="4.43027">
        <ele>590.38696289062</ele>
        <time>2017-03-22T15:41:59Z</time>
      </trkpt>
      <trkpt lat="45.58601" lon="4.43017">
        <ele>595.193359375</ele>
        <time>2017-03-22T15:42:11Z</time>
      </trkpt>
      <trkpt lat="45.58597" lon="4.43005">
        <ele>596.63549804688</ele>
        <time>2017-03-22T15:42:25Z</time>
      </trkpt>
      <trkpt lat="45.58593" lon="4.42992">
        <ele>599.51928710938</ele>
        <time>2017-03-22T15:42:37Z</time>
      </trkpt>
      <trkpt lat="45.58587" lon="4.42978">
        <ele>603.84521484375</ele>
        <time>2017-03-22T15:42:54Z</time>
      </trkpt>
      <trkpt lat="45.58583" lon="4.42966">
        <ele>606.72924804688</ele>
        <time>2017-03-22T15:43:08Z</time>
      </trkpt>
      <trkpt lat="45.58576" lon="4.42953">
        <ele>611.53588867188</ele>
        <time>2017-03-22T15:43:23Z</time>
      </trkpt>
      <trkpt lat="45.58569" lon="4.42941">
        <ele>616.34228515625</ele>
        <time>2017-03-22T15:43:41Z</time>
      </trkpt>
      <trkpt lat="45.58567" lon="4.42931">
        <ele>618.26489257812</ele>
        <time>2017-03-22T15:43:59Z</time>
      </trkpt>
      <trkpt lat="45.58568" lon="4.42905">
        <ele>618.74560546875</ele>
        <time>2017-03-22T15:44:18Z</time>
      </trkpt>
      <trkpt lat="45.58562" lon="4.42887">
        <ele>619.22631835938</ele>
        <time>2017-03-22T15:44:36Z</time>
      </trkpt>
      <trkpt lat="45.58555" lon="4.42859">
        <ele>619.70703125</ele>
        <time>2017-03-22T15:45:00Z</time>
      </trkpt>
      <trkpt lat="45.58545" lon="4.42838">
        <ele>618.74560546875</ele>
        <time>2017-03-22T15:45:16Z</time>
      </trkpt>
      <trkpt lat="45.58543" lon="4.42825">
        <ele>618.26489257812</ele>
        <time>2017-03-22T15:45:28Z</time>
      </trkpt>
      <trkpt lat="45.5854" lon="4.42822">
        <ele>618.26489257812</ele>
        <time>2017-03-22T15:45:47Z</time>
      </trkpt>
      <trkpt lat="45.58532" lon="4.42803">
        <ele>618.26489257812</ele>
        <time>2017-03-22T15:49:34Z</time>
      </trkpt>
      <trkpt lat="45.58526" lon="4.42783">
        <ele>621.14916992188</ele>
        <time>2017-03-22T15:49:49Z</time>
      </trkpt>
      <trkpt lat="45.58523" lon="4.42765">
        <ele>616.82299804688</ele>
        <time>2017-03-22T15:50:03Z</time>
      </trkpt>
      <trkpt lat="45.58517" lon="4.42743">
        <ele>616.34228515625</ele>
        <time>2017-03-22T15:50:16Z</time>
      </trkpt>
      <trkpt lat="45.58512" lon="4.42722">
        <ele>618.74560546875</ele>
        <time>2017-03-22T15:50:31Z</time>
      </trkpt>
      <trkpt lat="45.58501" lon="4.42698">
        <ele>616.82299804688</ele>
        <time>2017-03-22T15:50:45Z</time>
      </trkpt>
      <trkpt lat="45.5849" lon="4.42675">
        <ele>617.7841796875</ele>
        <time>2017-03-22T15:51:00Z</time>
      </trkpt>
      <trkpt lat="45.58481" lon="4.42655">
        <ele>618.74560546875</ele>
        <time>2017-03-22T15:51:16Z</time>
      </trkpt>
      <trkpt lat="45.58476" lon="4.42646">
        <ele>618.26489257812</ele>
        <time>2017-03-22T15:51:25Z</time>
      </trkpt>
      <trkpt lat="45.58481" lon="4.42636">
        <ele>618.74560546875</ele>
        <time>2017-03-22T15:51:33Z</time>
      </trkpt>
      <trkpt lat="45.58497" lon="4.42617">
        <ele>619.70703125</ele>
        <time>2017-03-22T15:51:48Z</time>
      </trkpt>
      <trkpt lat="45.58506" lon="4.42595">
        <ele>617.3037109375</ele>
        <time>2017-03-22T15:52:01Z</time>
      </trkpt>
      <trkpt lat="45.5851" lon="4.42583">
        <ele>616.34228515625</ele>
        <time>2017-03-22T15:52:11Z</time>
      </trkpt>
      <trkpt lat="45.5851" lon="4.42572">
        <ele>616.82299804688</ele>
        <time>2017-03-22T15:52:17Z</time>
      </trkpt>
      <trkpt lat="45.58516" lon="4.42557">
        <ele>618.74560546875</ele>
        <time>2017-03-22T15:52:28Z</time>
      </trkpt>
      <trkpt lat="45.58515" lon="4.42538">
        <ele>615.86181640625</ele>
        <time>2017-03-22T15:52:37Z</time>
      </trkpt>
      <trkpt lat="45.58516" lon="4.42532">
        <ele>616.34228515625</ele>
        <time>2017-03-22T15:52:41Z</time>
      </trkpt>
      <trkpt lat="45.58518" lon="4.42511">
        <ele>617.7841796875</ele>
        <time>2017-03-22T15:52:55Z</time>
      </trkpt>
      <trkpt lat="45.58518" lon="4.42509">
        <ele>618.26489257812</ele>
        <time>2017-03-22T15:52:56Z</time>
      </trkpt>
      <trkpt lat="45.5852" lon="4.4248">
        <ele>612.0166015625</ele>
        <time>2017-03-22T15:53:12Z</time>
      </trkpt>
      <trkpt lat="45.5852" lon="4.42477">
        <ele>611.53588867188</ele>
        <time>2017-03-22T15:53:15Z</time>
      </trkpt>
      <trkpt lat="45.58522" lon="4.42455">
        <ele>611.53588867188</ele>
        <time>2017-03-22T15:53:30Z</time>
      </trkpt>
      <trkpt lat="45.58522" lon="4.42455">
        <ele>611.53588867188</ele>
        <time>2017-03-22T15:53:31Z</time>
      </trkpt>
      <trkpt lat="45.5852" lon="4.42442">
        <ele>609.61328125</ele>
        <time>2017-03-22T15:53:42Z</time>
      </trkpt>
      <trkpt lat="45.58517" lon="4.42412">
        <ele>607.2099609375</ele>
        <time>2017-03-22T15:54:00Z</time>
      </trkpt>
      <trkpt lat="45.58513" lon="4.42397">
        <ele>605.28735351562</ele>
        <time>2017-03-22T15:54:19Z</time>
      </trkpt>
      <trkpt lat="45.58512" lon="4.42378">
        <ele>602.8837890625</ele>
        <time>2017-03-22T15:54:38Z</time>
      </trkpt>
      <trkpt lat="45.58507" lon="4.42366">
        <ele>603.84521484375</ele>
        <time>2017-03-22T15:54:47Z</time>
      </trkpt>
      <trkpt lat="45.58496" lon="4.4236">
        <ele>600.96118164062</ele>
        <time>2017-03-22T15:54:59Z</time>
      </trkpt>
      <trkpt lat="45.58493" lon="4.42358">
        <ele>600</ele>
        <time>2017-03-22T15:55:03Z</time>
      </trkpt>
      <trkpt lat="45.58492" lon="4.42347">
        <ele>598.07739257812</ele>
        <time>2017-03-22T15:55:12Z</time>
      </trkpt>
      <trkpt lat="45.58498" lon="4.42324">
        <ele>596.63549804688</ele>
        <time>2017-03-22T15:55:25Z</time>
      </trkpt>
      <trkpt lat="45.58499" lon="4.42316">
        <ele>597.5966796875</ele>
        <time>2017-03-22T15:55:30Z</time>
      </trkpt>
      <trkpt lat="45.585" lon="4.42307">
        <ele>595.193359375</ele>
        <time>2017-03-22T15:55:35Z</time>
      </trkpt>
      <trkpt lat="45.58501" lon="4.42287">
        <ele>594.71264648438</ele>
        <time>2017-03-22T15:55:48Z</time>
      </trkpt>
      <trkpt lat="45.58506" lon="4.42268">
        <ele>597.11596679688</ele>
        <time>2017-03-22T15:56:02Z</time>
      </trkpt>
      <trkpt lat="45.58505" lon="4.42259">
        <ele>598.55786132812</ele>
        <time>2017-03-22T15:56:15Z</time>
      </trkpt>
      <trkpt lat="45.58509" lon="4.42237">
        <ele>603.84521484375</ele>
        <time>2017-03-22T15:56:34Z</time>
      </trkpt>
      <trkpt lat="45.58514" lon="4.42217">
        <ele>606.72924804688</ele>
        <time>2017-03-22T15:56:52Z</time>
      </trkpt>
      <trkpt lat="45.58516" lon="4.42201">
        <ele>606.24853515625</ele>
        <time>2017-03-22T15:57:07Z</time>
      </trkpt>
      <trkpt lat="45.58518" lon="4.42186">
        <ele>602.8837890625</ele>
        <time>2017-03-22T15:57:19Z</time>
      </trkpt>
      <trkpt lat="45.58518" lon="4.42181">
        <ele>602.8837890625</ele>
        <time>2017-03-22T15:57:22Z</time>
      </trkpt>
      <trkpt lat="45.58521" lon="4.42168">
        <ele>603.36450195312</ele>
        <time>2017-03-22T15:57:34Z</time>
      </trkpt>
      <trkpt lat="45.58525" lon="4.42157">
        <ele>603.84521484375</ele>
        <time>2017-03-22T15:57:49Z</time>
      </trkpt>
      <trkpt lat="45.58535" lon="4.42153">
        <ele>603.36450195312</ele>
        <time>2017-03-22T16:00:08Z</time>
      </trkpt>
      <trkpt lat="45.58543" lon="4.42138">
        <ele>603.84521484375</ele>
        <time>2017-03-22T16:00:28Z</time>
      </trkpt>
      <trkpt lat="45.58547" lon="4.42119">
        <ele>604.326171875</ele>
        <time>2017-03-22T16:00:39Z</time>
      </trkpt>
      <trkpt lat="45.58548" lon="4.42106">
        <ele>603.36450195312</ele>
        <time>2017-03-22T16:00:48Z</time>
      </trkpt>
      <trkpt lat="45.58546" lon="4.42088">
        <ele>604.806640625</ele>
        <time>2017-03-22T16:01:04Z</time>
      </trkpt>
      <trkpt lat="45.58548" lon="4.42084">
        <ele>603.84521484375</ele>
        <time>2017-03-22T16:01:25Z</time>
      </trkpt>
      <trkpt lat="45.58549" lon="4.42086">
        <ele>603.84521484375</ele>
        <time>2017-03-22T16:01:49Z</time>
      </trkpt>
      <trkpt lat="45.58558" lon="4.42079">
        <ele>604.806640625</ele>
        <time>2017-03-22T16:02:03Z</time>
      </trkpt>
      <trkpt lat="45.58566" lon="4.42078">
        <ele>603.84521484375</ele>
        <time>2017-03-22T16:02:17Z</time>
      </trkpt>
      <trkpt lat="45.58569" lon="4.42078">
        <ele>603.36450195312</ele>
        <time>2017-03-22T16:02:20Z</time>
      </trkpt>
      <trkpt lat="45.58586" lon="4.42074">
        <ele>606.24853515625</ele>
        <time>2017-03-22T16:02:35Z</time>
      </trkpt>
      <trkpt lat="45.58592" lon="4.42073">
        <ele>602.40307617188</ele>
        <time>2017-03-22T16:02:48Z</time>
      </trkpt>
      <trkpt lat="45.58597" lon="4.42069">
        <ele>602.8837890625</ele>
        <time>2017-03-22T16:03:53Z</time>
      </trkpt>
      <trkpt lat="45.58617" lon="4.42064">
        <ele>603.36450195312</ele>
        <time>2017-03-22T16:04:06Z</time>
      </trkpt>
      <trkpt lat="45.58635" lon="4.42057">
        <ele>600.48071289062</ele>
        <time>2017-03-22T16:04:19Z</time>
      </trkpt>
      <trkpt lat="45.58646" lon="4.42053">
        <ele>598.07739257812</ele>
        <time>2017-03-22T16:04:31Z</time>
      </trkpt>
      <trkpt lat="45.58647" lon="4.42053">
        <ele>597.5966796875</ele>
        <time>2017-03-22T16:04:32Z</time>
      </trkpt>
      <trkpt lat="45.58651" lon="4.42051">
        <ele>598.55786132812</ele>
        <time>2017-03-22T16:04:36Z</time>
      </trkpt>
      <trkpt lat="45.58668" lon="4.4204">
        <ele>600.96118164062</ele>
        <time>2017-03-22T16:04:52Z</time>
      </trkpt>
      <trkpt lat="45.58671" lon="4.42039">
        <ele>601.44189453125</ele>
        <time>2017-03-22T16:04:56Z</time>
      </trkpt>
      <trkpt lat="45.58675" lon="4.42035">
        <ele>600.96118164062</ele>
        <time>2017-03-22T16:05:00Z</time>
      </trkpt>
      <trkpt lat="45.58686" lon="4.42024">
        <ele>600</ele>
        <time>2017-03-22T16:05:10Z</time>
      </trkpt>
      <trkpt lat="45.58697" lon="4.42004">
        <ele>595.67407226562</ele>
        <time>2017-03-22T16:05:27Z</time>
      </trkpt>
      <trkpt lat="45.58707" lon="4.41984">
        <ele>593.27075195312</ele>
        <time>2017-03-22T16:05:41Z</time>
      </trkpt>
      <trkpt lat="45.58716" lon="4.41968">
        <ele>592.79028320312</ele>
        <time>2017-03-22T16:05:53Z</time>
      </trkpt>
      <trkpt lat="45.5873" lon="4.41955">
        <ele>592.79028320312</ele>
        <time>2017-03-22T16:06:06Z</time>
      </trkpt>
      <trkpt lat="45.58739" lon="4.41944">
        <ele>592.79028320312</ele>
        <time>2017-03-22T16:06:17Z</time>
      </trkpt>
      <trkpt lat="45.58748" lon="4.41931">
        <ele>591.34814453125</ele>
        <time>2017-03-22T16:06:30Z</time>
      </trkpt>
      <trkpt lat="45.58755" lon="4.41912">
        <ele>592.79028320312</ele>
        <time>2017-03-22T16:06:50Z</time>
      </trkpt>
      <trkpt lat="45.58756" lon="4.41911">
        <ele>592.79028320312</ele>
        <time>2017-03-22T16:06:51Z</time>
      </trkpt>
      <trkpt lat="45.58776" lon="4.41902">
        <ele>592.3095703125</ele>
        <time>2017-03-22T16:07:07Z</time>
      </trkpt>
      <trkpt lat="45.58783" lon="4.41899">
        <ele>592.3095703125</ele>
        <time>2017-03-22T16:07:13Z</time>
      </trkpt>
      <trkpt lat="45.58785" lon="4.41898">
        <ele>592.3095703125</ele>
        <time>2017-03-22T16:07:16Z</time>
      </trkpt>
      <trkpt lat="45.58801" lon="4.41892">
        <ele>586.54150390625</ele>
        <time>2017-03-22T16:07:30Z</time>
      </trkpt>
      <trkpt lat="45.58806" lon="4.41889">
        <ele>585.580078125</ele>
        <time>2017-03-22T16:07:33Z</time>
      </trkpt>
      <trkpt lat="45.58825" lon="4.41876">
        <ele>582.21557617188</ele>
        <time>2017-03-22T16:07:49Z</time>
      </trkpt>
      <trkpt lat="45.58843" lon="4.4186">
        <ele>582.6962890625</ele>
        <time>2017-03-22T16:08:06Z</time>
      </trkpt>
      <trkpt lat="45.58855" lon="4.41851">
        <ele>584.13818359375</ele>
        <time>2017-03-22T16:08:17Z</time>
      </trkpt>
      <trkpt lat="45.58862" lon="4.41846">
        <ele>583.65747070312</ele>
        <time>2017-03-22T16:08:23Z</time>
      </trkpt>
      <trkpt lat="45.58865" lon="4.41844">
        <ele>583.1767578125</ele>
        <time>2017-03-22T16:08:26Z</time>
      </trkpt>
      <trkpt lat="45.5887" lon="4.4184">
        <ele>584.13818359375</ele>
        <time>2017-03-22T16:08:30Z</time>
      </trkpt>
      <trkpt lat="45.58876" lon="4.41836">
        <ele>583.65747070312</ele>
        <time>2017-03-22T16:08:35Z</time>
      </trkpt>
      <trkpt lat="45.58883" lon="4.41832">
        <ele>583.1767578125</ele>
        <time>2017-03-22T16:08:42Z</time>
      </trkpt>
      <trkpt lat="45.58894" lon="4.41823">
        <ele>582.6962890625</ele>
        <time>2017-03-22T16:08:56Z</time>
      </trkpt>
      <trkpt lat="45.58905" lon="4.41814">
        <ele>582.6962890625</ele>
        <time>2017-03-22T16:09:09Z</time>
      </trkpt>
      <trkpt lat="45.58915" lon="4.41803">
        <ele>582.6962890625</ele>
        <time>2017-03-22T16:09:20Z</time>
      </trkpt>
      <trkpt lat="45.58923" lon="4.41787">
        <ele>583.65747070312</ele>
        <time>2017-03-22T16:09:33Z</time>
      </trkpt>
      <trkpt lat="45.58929" lon="4.41781">
        <ele>584.13818359375</ele>
        <time>2017-03-22T16:09:38Z</time>
      </trkpt>
      <trkpt lat="45.58931" lon="4.41778">
        <ele>584.13818359375</ele>
        <time>2017-03-22T16:09:40Z</time>
      </trkpt>
      <trkpt lat="45.58937" lon="4.41772">
        <ele>585.580078125</ele>
        <time>2017-03-22T16:09:48Z</time>
      </trkpt>
      <trkpt lat="45.58948" lon="4.41757">
        <ele>586.54150390625</ele>
        <time>2017-03-22T16:09:57Z</time>
      </trkpt>
      <trkpt lat="45.58948" lon="4.41751">
        <ele>585.580078125</ele>
        <time>2017-03-22T16:10:01Z</time>
      </trkpt>
      <trkpt lat="45.58957" lon="4.41739">
        <ele>586.54150390625</ele>
        <time>2017-03-22T16:10:11Z</time>
      </trkpt>
      <trkpt lat="45.58959" lon="4.41734">
        <ele>587.02197265625</ele>
        <time>2017-03-22T16:10:14Z</time>
      </trkpt>
      <trkpt lat="45.58966" lon="4.41711">
        <ele>589.90625</ele>
        <time>2017-03-22T16:10:31Z</time>
      </trkpt>
      <trkpt lat="45.58969" lon="4.41693">
        <ele>588.94506835938</ele>
        <time>2017-03-22T16:10:45Z</time>
      </trkpt>
      <trkpt lat="45.58987" lon="4.41656">
        <ele>587.50268554688</ele>
        <time>2017-03-22T16:11:12Z</time>
      </trkpt>
      <trkpt lat="45.59003" lon="4.41624">
        <ele>587.02197265625</ele>
        <time>2017-03-22T16:11:39Z</time>
      </trkpt>
      <trkpt lat="45.59025" lon="4.41592">
        <ele>586.06079101562</ele>
        <time>2017-03-22T16:12:00Z</time>
      </trkpt>
      <trkpt lat="45.59028" lon="4.41592">
        <ele>586.06079101562</ele>
        <time>2017-03-22T16:12:02Z</time>
      </trkpt>
      <trkpt lat="45.59033" lon="4.41583">
        <ele>586.06079101562</ele>
        <time>2017-03-22T16:12:06Z</time>
      </trkpt>
      <trkpt lat="45.59052" lon="4.41555">
        <ele>578.85107421875</ele>
        <time>2017-03-22T16:12:30Z</time>
      </trkpt>
      <trkpt lat="45.59052" lon="4.41553">
        <ele>578.85107421875</ele>
        <time>2017-03-22T16:12:32Z</time>
      </trkpt>
      <trkpt lat="45.59053" lon="4.4152">
        <ele>575.96704101562</ele>
        <time>2017-03-22T16:12:49Z</time>
      </trkpt>
      <trkpt lat="45.59059" lon="4.41489">
        <ele>574.52514648438</ele>
        <time>2017-03-22T16:13:05Z</time>
      </trkpt>
      <trkpt lat="45.59062" lon="4.41479">
        <ele>574.52514648438</ele>
        <time>2017-03-22T16:13:11Z</time>
      </trkpt>
      <trkpt lat="45.59067" lon="4.41465">
        <ele>574.52514648438</ele>
        <time>2017-03-22T16:13:19Z</time>
      </trkpt>
      <trkpt lat="45.59072" lon="4.41455">
        <ele>575.486328125</ele>
        <time>2017-03-22T16:13:25Z</time>
      </trkpt>
      <trkpt lat="45.59072" lon="4.41431">
        <ele>573.56396484375</ele>
        <time>2017-03-22T16:13:39Z</time>
      </trkpt>
      <trkpt lat="45.59073" lon="4.41429">
        <ele>573.56396484375</ele>
        <time>2017-03-22T16:13:41Z</time>
      </trkpt>
      <trkpt lat="45.59081" lon="4.41411">
        <ele>575.005859375</ele>
        <time>2017-03-22T16:13:56Z</time>
      </trkpt>
      <trkpt lat="45.59088" lon="4.41392">
        <ele>572.12182617188</ele>
        <time>2017-03-22T16:14:10Z</time>
      </trkpt>
      <trkpt lat="45.59089" lon="4.41389">
        <ele>572.12182617188</ele>
        <time>2017-03-22T16:14:12Z</time>
      </trkpt>
      <trkpt lat="45.591" lon="4.4138">
        <ele>572.6025390625</ele>
        <time>2017-03-22T16:14:21Z</time>
      </trkpt>
      <trkpt lat="45.59116" lon="4.41376">
        <ele>573.56396484375</ele>
        <time>2017-03-22T16:14:35Z</time>
      </trkpt>
      <trkpt lat="45.59125" lon="4.41372">
        <ele>575.005859375</ele>
        <time>2017-03-22T16:14:42Z</time>
      </trkpt>
      <trkpt lat="45.59136" lon="4.41385">
        <ele>565.392578125</ele>
        <time>2017-03-22T16:14:57Z</time>
      </trkpt>
      <trkpt lat="45.59138" lon="4.41391">
        <ele>565.392578125</ele>
        <time>2017-03-22T16:15:02Z</time>
      </trkpt>
      <trkpt lat="45.5914" lon="4.41396">
        <ele>563.46997070312</ele>
        <time>2017-03-22T16:15:16Z</time>
      </trkpt>
      <trkpt lat="45.59143" lon="4.41376">
        <ele>561.06665039062</ele>
        <time>2017-03-22T16:15:28Z</time>
      </trkpt>
      <trkpt lat="45.59141" lon="4.41367">
        <ele>560.5859375</ele>
        <time>2017-03-22T16:15:33Z</time>
      </trkpt>
      <trkpt lat="45.59135" lon="4.41353">
        <ele>564.43115234375</ele>
        <time>2017-03-22T16:15:45Z</time>
      </trkpt>
      <trkpt lat="45.59131" lon="4.41339">
        <ele>566.35375976562</ele>
        <time>2017-03-22T16:15:57Z</time>
      </trkpt>
      <trkpt lat="45.59129" lon="4.41326">
        <ele>565.392578125</ele>
        <time>2017-03-22T16:16:05Z</time>
      </trkpt>
      <trkpt lat="45.59132" lon="4.41313">
        <ele>564.91186523438</ele>
        <time>2017-03-22T16:16:13Z</time>
      </trkpt>
      <trkpt lat="45.59136" lon="4.413">
        <ele>567.79565429688</ele>
        <time>2017-03-22T16:16:24Z</time>
      </trkpt>
      <trkpt lat="45.59144" lon="4.41283">
        <ele>570.19897460938</ele>
        <time>2017-03-22T16:16:35Z</time>
      </trkpt>
      <trkpt lat="45.59147" lon="4.41266">
        <ele>569.23779296875</ele>
        <time>2017-03-22T16:16:49Z</time>
      </trkpt>
      <trkpt lat="45.59148" lon="4.41259">
        <ele>569.23779296875</ele>
        <time>2017-03-22T16:16:53Z</time>
      </trkpt>
      <trkpt lat="45.59147" lon="4.41257">
        <ele>569.71850585938</ele>
        <time>2017-03-22T16:16:55Z</time>
      </trkpt>
      <trkpt lat="45.59146" lon="4.41242">
        <ele>570.19897460938</ele>
        <time>2017-03-22T16:17:09Z</time>
      </trkpt>
      <trkpt lat="45.59154" lon="4.41207">
        <ele>575.486328125</ele>
        <time>2017-03-22T16:17:34Z</time>
      </trkpt>
      <trkpt lat="45.59155" lon="4.41203">
        <ele>575.486328125</ele>
        <time>2017-03-22T16:17:36Z</time>
      </trkpt>
      <trkpt lat="45.59159" lon="4.41186">
        <ele>574.52514648438</ele>
        <time>2017-03-22T16:17:49Z</time>
      </trkpt>
      <trkpt lat="45.59157" lon="4.41173">
        <ele>574.52514648438</ele>
        <time>2017-03-22T16:18:05Z</time>
      </trkpt>
      <trkpt lat="45.59156" lon="4.41169">
        <ele>575.005859375</ele>
        <time>2017-03-22T16:18:07Z</time>
      </trkpt>
      <trkpt lat="45.5915" lon="4.41156">
        <ele>575.486328125</ele>
        <time>2017-03-22T16:18:21Z</time>
      </trkpt>
      <trkpt lat="45.59145" lon="4.41134">
        <ele>577.4091796875</ele>
        <time>2017-03-22T16:18:39Z</time>
      </trkpt>
      <trkpt lat="45.59135" lon="4.41112">
        <ele>577.8896484375</ele>
        <time>2017-03-22T16:18:55Z</time>
      </trkpt>
      <trkpt lat="45.59131" lon="4.41101">
        <ele>575.96704101562</ele>
        <time>2017-03-22T16:19:07Z</time>
      </trkpt>
      <trkpt lat="45.59125" lon="4.41087">
        <ele>574.52514648438</ele>
        <time>2017-03-22T16:19:22Z</time>
      </trkpt>
      <trkpt lat="45.59122" lon="4.41061">
        <ele>574.52514648438</ele>
        <time>2017-03-22T16:19:39Z</time>
      </trkpt>
      <trkpt lat="45.59132" lon="4.41023">
        <ele>573.56396484375</ele>
        <time>2017-03-22T16:20:01Z</time>
      </trkpt>
      <trkpt lat="45.59135" lon="4.41">
        <ele>572.6025390625</ele>
        <time>2017-03-22T16:20:14Z</time>
      </trkpt>
      <trkpt lat="45.59135" lon="4.40999">
        <ele>572.6025390625</ele>
        <time>2017-03-22T16:20:15Z</time>
      </trkpt>
      <trkpt lat="45.59135" lon="4.40989">
        <ele>572.6025390625</ele>
        <time>2017-03-22T16:20:21Z</time>
      </trkpt>
      <trkpt lat="45.59135" lon="4.40965">
        <ele>573.08325195312</ele>
        <time>2017-03-22T16:20:36Z</time>
      </trkpt>
      <trkpt lat="45.59139" lon="4.40946">
        <ele>578.37036132812</ele>
        <time>2017-03-22T16:20:49Z</time>
      </trkpt>
      <trkpt lat="45.59139" lon="4.40932">
        <ele>581.25439453125</ele>
        <time>2017-03-22T16:20:59Z</time>
      </trkpt>
      <trkpt lat="45.59141" lon="4.40916">
        <ele>580.77368164062</ele>
        <time>2017-03-22T16:21:13Z</time>
      </trkpt>
      <trkpt lat="45.5914" lon="4.40897">
        <ele>581.73486328125</ele>
        <time>2017-03-22T16:21:25Z</time>
      </trkpt>
      <trkpt lat="45.59141" lon="4.40892">
        <ele>582.6962890625</ele>
        <time>2017-03-22T16:21:28Z</time>
      </trkpt>
      <trkpt lat="45.59142" lon="4.40885">
        <ele>584.13818359375</ele>
        <time>2017-03-22T16:21:33Z</time>
      </trkpt>
      <trkpt lat="45.59146" lon="4.40862">
        <ele>586.54150390625</ele>
        <time>2017-03-22T16:21:48Z</time>
      </trkpt>
      <trkpt lat="45.59152" lon="4.40844">
        <ele>590.86743164062</ele>
        <time>2017-03-22T16:22:00Z</time>
      </trkpt>
      <trkpt lat="45.59156" lon="4.40822">
        <ele>592.79028320312</ele>
        <time>2017-03-22T16:22:16Z</time>
      </trkpt>
      <trkpt lat="45.59158" lon="4.40805">
        <ele>593.27075195312</ele>
        <time>2017-03-22T16:22:28Z</time>
      </trkpt>
      <trkpt lat="45.59161" lon="4.40784">
        <ele>595.67407226562</ele>
        <time>2017-03-22T16:22:43Z</time>
      </trkpt>
      <trkpt lat="45.59164" lon="4.4078">
        <ele>596.63549804688</ele>
        <time>2017-03-22T16:22:47Z</time>
      </trkpt>
      <trkpt lat="45.59181" lon="4.4077">
        <ele>600.48071289062</ele>
        <time>2017-03-22T16:23:04Z</time>
      </trkpt>
      <trkpt lat="45.59189" lon="4.40764">
        <ele>602.40307617188</ele>
        <time>2017-03-22T16:23:19Z</time>
      </trkpt>
      <trkpt lat="45.59215" lon="4.40747">
        <ele>604.326171875</ele>
        <time>2017-03-22T16:23:38Z</time>
      </trkpt>
      <trkpt lat="45.59235" lon="4.40723">
        <ele>606.24853515625</ele>
        <time>2017-03-22T16:24:00Z</time>
      </trkpt>
      <trkpt lat="45.59237" lon="4.4072">
        <ele>606.24853515625</ele>
        <time>2017-03-22T16:24:03Z</time>
      </trkpt>
      <trkpt lat="45.59244" lon="4.40708">
        <ele>603.84521484375</ele>
        <time>2017-03-22T16:24:18Z</time>
      </trkpt>
      <trkpt lat="45.59256" lon="4.40692">
        <ele>602.40307617188</ele>
        <time>2017-03-22T16:24:31Z</time>
      </trkpt>
      <trkpt lat="45.59271" lon="4.40679">
        <ele>601.44189453125</ele>
        <time>2017-03-22T16:24:48Z</time>
      </trkpt>
      <trkpt lat="45.59275" lon="4.40674">
        <ele>601.44189453125</ele>
        <time>2017-03-22T16:24:52Z</time>
      </trkpt>
      <trkpt lat="45.59292" lon="4.40661">
        <ele>602.40307617188</ele>
        <time>2017-03-22T16:25:07Z</time>
      </trkpt>
      <trkpt lat="45.59305" lon="4.40646">
        <ele>609.61328125</ele>
        <time>2017-03-22T16:25:19Z</time>
      </trkpt>
      <trkpt lat="45.59316" lon="4.40629">
        <ele>612.97778320312</ele>
        <time>2017-03-22T16:25:32Z</time>
      </trkpt>
      <trkpt lat="45.59329" lon="4.40611">
        <ele>612.0166015625</ele>
        <time>2017-03-22T16:25:49Z</time>
      </trkpt>
      <trkpt lat="45.5934" lon="4.40587">
        <ele>610.09375</ele>
        <time>2017-03-22T16:26:05Z</time>
      </trkpt>
      <trkpt lat="45.59343" lon="4.40579">
        <ele>608.65185546875</ele>
        <time>2017-03-22T16:26:10Z</time>
      </trkpt>
      <trkpt lat="45.59346" lon="4.40572">
        <ele>609.61328125</ele>
        <time>2017-03-22T16:26:15Z</time>
      </trkpt>
      <trkpt lat="45.5935" lon="4.40555">
        <ele>609.13256835938</ele>
        <time>2017-03-22T16:26:27Z</time>
      </trkpt>
      <trkpt lat="45.59351" lon="4.40547">
        <ele>608.65185546875</ele>
        <time>2017-03-22T16:26:31Z</time>
      </trkpt>
      <trkpt lat="45.59351" lon="4.40537">
        <ele>609.61328125</ele>
        <time>2017-03-22T16:26:47Z</time>
      </trkpt>
      <trkpt lat="45.59354" lon="4.40517">
        <ele>608.65185546875</ele>
        <time>2017-03-22T16:29:21Z</time>
      </trkpt>
      <trkpt lat="45.5935" lon="4.40488">
        <ele>606.72924804688</ele>
        <time>2017-03-22T16:29:34Z</time>
      </trkpt>
      <trkpt lat="45.59345" lon="4.40468">
        <ele>604.326171875</ele>
        <time>2017-03-22T16:29:49Z</time>
      </trkpt>
      <trkpt lat="45.59337" lon="4.40447">
        <ele>604.806640625</ele>
        <time>2017-03-22T16:30:01Z</time>
      </trkpt>
      <trkpt lat="45.59329" lon="4.40432">
        <ele>606.24853515625</ele>
        <time>2017-03-22T16:30:12Z</time>
      </trkpt>
      <trkpt lat="45.59318" lon="4.40417">
        <ele>604.326171875</ele>
        <time>2017-03-22T16:30:25Z</time>
      </trkpt>
      <trkpt lat="45.59309" lon="4.40406">
        <ele>602.40307617188</ele>
        <time>2017-03-22T16:30:38Z</time>
      </trkpt>
      <trkpt lat="45.59296" lon="4.40391">
        <ele>598.55786132812</ele>
        <time>2017-03-22T16:30:51Z</time>
      </trkpt>
      <trkpt lat="45.5928" lon="4.40377">
        <ele>592.79028320312</ele>
        <time>2017-03-22T16:31:05Z</time>
      </trkpt>
      <trkpt lat="45.59269" lon="4.40356">
        <ele>586.54150390625</ele>
        <time>2017-03-22T16:31:20Z</time>
      </trkpt>
      <trkpt lat="45.59248" lon="4.4034">
        <ele>582.21557617188</ele>
        <time>2017-03-22T16:31:35Z</time>
      </trkpt>
      <trkpt lat="45.59236" lon="4.40327">
        <ele>579.33154296875</ele>
        <time>2017-03-22T16:31:51Z</time>
      </trkpt>
      <trkpt lat="45.59235" lon="4.40324">
        <ele>578.85107421875</ele>
        <time>2017-03-22T16:31:53Z</time>
      </trkpt>
      <trkpt lat="45.5921" lon="4.4031">
        <ele>573.08325195312</ele>
        <time>2017-03-22T16:32:10Z</time>
      </trkpt>
      <trkpt lat="45.59205" lon="4.40311">
        <ele>570.6796875</ele>
        <time>2017-03-22T16:32:17Z</time>
      </trkpt>
      <trkpt lat="45.59185" lon="4.40296">
        <ele>565.87329101562</ele>
        <time>2017-03-22T16:32:35Z</time>
      </trkpt>
      <trkpt lat="45.59175" lon="4.40286">
        <ele>562.50854492188</ele>
        <time>2017-03-22T16:32:47Z</time>
      </trkpt>
      <trkpt lat="45.59151" lon="4.40288">
        <ele>559.62475585938</ele>
        <time>2017-03-22T16:33:01Z</time>
      </trkpt>
      <trkpt lat="45.59139" lon="4.40284">
        <ele>555.29858398438</ele>
        <time>2017-03-22T16:33:14Z</time>
      </trkpt>
      <trkpt lat="45.59125" lon="4.40277">
        <ele>553.3759765625</ele>
        <time>2017-03-22T16:33:28Z</time>
      </trkpt>
      <trkpt lat="45.59114" lon="4.40273">
        <ele>552.89526367188</ele>
        <time>2017-03-22T16:33:40Z</time>
      </trkpt>
      <trkpt lat="45.59104" lon="4.40269">
        <ele>552.41455078125</ele>
        <time>2017-03-22T16:33:48Z</time>
      </trkpt>
      <trkpt lat="45.59095" lon="4.40268">
        <ele>551.93408203125</ele>
        <time>2017-03-22T16:33:57Z</time>
      </trkpt>
      <trkpt lat="45.5908" lon="4.40273">
        <ele>550.01147460938</ele>
        <time>2017-03-22T16:34:10Z</time>
      </trkpt>
      <trkpt lat="45.59079" lon="4.40271">
        <ele>549.53076171875</ele>
        <time>2017-03-22T16:34:11Z</time>
      </trkpt>
      <trkpt lat="45.5907" lon="4.40272">
        <ele>547.60815429688</ele>
        <time>2017-03-22T16:34:18Z</time>
      </trkpt>
      <trkpt lat="45.59056" lon="4.40272">
        <ele>544.72424316406</ele>
        <time>2017-03-22T16:34:30Z</time>
      </trkpt>
      <trkpt lat="45.59039" lon="4.40276">
        <ele>542.80151367188</ele>
        <time>2017-03-22T16:34:44Z</time>
      </trkpt>
      <trkpt lat="45.59028" lon="4.40279">
        <ele>545.685546875</ele>
        <time>2017-03-22T16:34:57Z</time>
      </trkpt>
      <trkpt lat="45.59017" lon="4.40275">
        <ele>546.64685058594</ele>
        <time>2017-03-22T16:35:06Z</time>
      </trkpt>
      <trkpt lat="45.59016" lon="4.40275">
        <ele>546.64685058594</ele>
        <time>2017-03-22T16:35:09Z</time>
      </trkpt>
      <trkpt lat="45.59" lon="4.40276">
        <ele>544.72424316406</ele>
        <time>2017-03-22T16:35:21Z</time>
      </trkpt>
      <trkpt lat="45.58995" lon="4.40276">
        <ele>543.76281738281</ele>
        <time>2017-03-22T16:35:25Z</time>
      </trkpt>
      <trkpt lat="45.58979" lon="4.40278">
        <ele>546.16625976562</ele>
        <time>2017-03-22T16:35:40Z</time>
      </trkpt>
      <trkpt lat="45.58967" lon="4.40279">
        <ele>549.53076171875</ele>
        <time>2017-03-22T16:35:51Z</time>
      </trkpt>
      <trkpt lat="45.58954" lon="4.40283">
        <ele>550.4921875</ele>
        <time>2017-03-22T16:36:03Z</time>
      </trkpt>
      <trkpt lat="45.58947" lon="4.40282">
        <ele>550.01147460938</ele>
        <time>2017-03-22T16:36:09Z</time>
      </trkpt>
      <trkpt lat="45.58939" lon="4.40284">
        <ele>548.5693359375</ele>
        <time>2017-03-22T16:36:18Z</time>
      </trkpt>
      <trkpt lat="45.58923" lon="4.40285">
        <ele>546.16625976562</ele>
        <time>2017-03-22T16:36:30Z</time>
      </trkpt>
      <trkpt lat="45.58917" lon="4.40285">
        <ele>544.72424316406</ele>
        <time>2017-03-22T16:36:35Z</time>
      </trkpt>
      <trkpt lat="45.58914" lon="4.40285">
        <ele>544.24365234375</ele>
        <time>2017-03-22T16:36:38Z</time>
      </trkpt>
      <trkpt lat="45.58904" lon="4.40281">
        <ele>543.28210449219</ele>
        <time>2017-03-22T16:36:45Z</time>
      </trkpt>
      <trkpt lat="45.58895" lon="4.40275">
        <ele>544.72424316406</ele>
        <time>2017-03-22T16:36:53Z</time>
      </trkpt>
      <trkpt lat="45.58893" lon="4.40274">
        <ele>546.64685058594</ele>
        <time>2017-03-22T16:36:55Z</time>
      </trkpt>
      <trkpt lat="45.58883" lon="4.40268">
        <ele>549.05004882812</ele>
        <time>2017-03-22T16:37:05Z</time>
      </trkpt>
      <trkpt lat="45.58876" lon="4.40258">
        <ele>545.20483398438</ele>
        <time>2017-03-22T16:37:21Z</time>
      </trkpt>
      <trkpt lat="45.58866" lon="4.40247">
        <ele>543.28210449219</ele>
        <time>2017-03-22T16:37:28Z</time>
      </trkpt>
      <trkpt lat="45.58857" lon="4.40224">
        <ele>540.87890625</ele>
        <time>2017-03-22T16:37:41Z</time>
      </trkpt>
      <trkpt lat="45.58849" lon="4.40226">
        <ele>540.87890625</ele>
        <time>2017-03-22T16:37:47Z</time>
      </trkpt>
      <trkpt lat="45.58838" lon="4.40207">
        <ele>540.39831542969</ele>
        <time>2017-03-22T16:38:00Z</time>
      </trkpt>
      <trkpt lat="45.58837" lon="4.40206">
        <ele>539.91760253906</ele>
        <time>2017-03-22T16:38:01Z</time>
      </trkpt>
      <trkpt lat="45.58828" lon="4.4018">
        <ele>539.43688964844</ele>
        <time>2017-03-22T16:38:16Z</time>
      </trkpt>
      <trkpt lat="45.58827" lon="4.4017">
        <ele>539.43688964844</ele>
        <time>2017-03-22T16:38:30Z</time>
      </trkpt>
      <trkpt lat="45.58824" lon="4.40164">
        <ele>538.95629882812</ele>
        <time>2017-03-22T16:38:34Z</time>
      </trkpt>
      <trkpt lat="45.58818" lon="4.40134">
        <ele>538.47570800781</ele>
        <time>2017-03-22T16:38:51Z</time>
      </trkpt>
      <trkpt lat="45.58818" lon="4.40132">
        <ele>538.47570800781</ele>
        <time>2017-03-22T16:38:52Z</time>
      </trkpt>
      <trkpt lat="45.58823" lon="4.40115">
        <ele>536.55310058594</ele>
        <time>2017-03-22T16:39:01Z</time>
      </trkpt>
      <trkpt lat="45.58828" lon="4.40103">
        <ele>534.14965820312</ele>
        <time>2017-03-22T16:39:14Z</time>
      </trkpt>
      <trkpt lat="45.58823" lon="4.40073">
        <ele>532.70776367188</ele>
        <time>2017-03-22T16:39:33Z</time>
      </trkpt>
      <trkpt lat="45.58833" lon="4.40064">
        <ele>532.70776367188</ele>
        <time>2017-03-22T16:39:44Z</time>
      </trkpt>
      <trkpt lat="45.58845" lon="4.40064">
        <ele>532.70776367188</ele>
        <time>2017-03-22T16:39:59Z</time>
      </trkpt>
      <trkpt lat="45.58851" lon="4.40047">
        <ele>534.14965820312</ele>
        <time>2017-03-22T16:40:28Z</time>
      </trkpt>
      <trkpt lat="45.58837" lon="4.4004">
        <ele>540.87890625</ele>
        <time>2017-03-22T16:40:41Z</time>
      </trkpt>
      <trkpt lat="45.58813" lon="4.40046">
        <ele>549.53076171875</ele>
        <time>2017-03-22T16:40:54Z</time>
      </trkpt>
      <trkpt lat="45.58812" lon="4.40046">
        <ele>550.4921875</ele>
        <time>2017-03-22T16:41:33Z</time>
      </trkpt>
    </trkseg>
  </trk>
</gpx>